RYL18 FTTJ-FZEA
Flight info
| Callsign | RYL18 |
|---|---|
| Flight time | 4h 44m |
| Altitude | 17000 |
| Route | FL UM731 BAMAV UT143 OKSAS UJ200 VONIP DESE1C |
| Aircraft | C208/L-SDFGR/C |
Departure
| Time | 2026-04-18 12:08 |
|---|---|
| Airport | N'Djamena International Airport (FTTJ) |
Arrival
| Time | 2026-04-18 16:52 |
|---|---|
| Airport | Mbandaka Airport (FZEA) |
| Time | Latitude | Longitude | Altitude | Speed | Heading |
|---|---|---|---|---|---|
| 2026-04-18 12:01 | 12.12842 | 15.03185 | 973 ft | 0 kts | 350° |
| 2026-04-18 12:06 | 12.12852 | 15.03182 | 973 ft | 4 kts | 338° |
| 2026-04-18 12:07 | 12.12856 | 15.03128 | 973 ft | 12 kts | 232° |
| 2026-04-18 12:07 | 12.12877 | 15.03055 | 972 ft | 12 kts | 319° |
| 2026-04-18 12:07 | 12.12944 | 15.02990 | 971 ft | 12 kts | 332° |
| 2026-04-18 12:07 | 12.13038 | 15.03051 | 971 ft | 40 kts | 46° |
| 2026-04-18 12:08 | 12.13391 | 15.03422 | 976 ft | 100 kts | 47° |
| 2026-04-18 12:08 | 12.13927 | 15.03973 | 1204 ft | 112 kts | 48° |
| 2026-04-18 12:08 | 12.14490 | 15.04526 | 1555 ft | 112 kts | 42° |
| 2026-04-18 12:08 | 12.15091 | 15.05037 | 1824 ft | 120 kts | 43° |
| 2026-04-18 12:09 | 12.15758 | 15.05617 | 2071 ft | 131 kts | 43° |
| 2026-04-18 12:09 | 12.16463 | 15.06252 | 2324 ft | 138 kts | 51° |
| 2026-04-18 12:09 | 12.16724 | 15.07157 | 2570 ft | 141 kts | 96° |
| 2026-04-18 12:09 | 12.16225 | 15.08026 | 2820 ft | 149 kts | 140° |
| 2026-04-18 12:10 | 12.15231 | 15.08303 | 3065 ft | 155 kts | 181° |
| 2026-04-18 12:10 | 12.14189 | 15.08093 | 3310 ft | 150 kts | 189° |
| 2026-04-18 12:10 | 12.13192 | 15.07836 | 3555 ft | 145 kts | 189° |
| 2026-04-18 12:10 | 12.12232 | 15.07583 | 3800 ft | 141 kts | 189° |
| 2026-04-18 12:11 | 12.11287 | 15.07335 | 4048 ft | 138 kts | 189° |
| 2026-04-18 12:11 | 12.10373 | 15.07095 | 4293 ft | 135 kts | 189° |
| 2026-04-18 12:11 | 12.09480 | 15.06861 | 4538 ft | 133 kts | 189° |
| 2026-04-18 12:11 | 12.08583 | 15.06626 | 4788 ft | 131 kts | 189° |
| 2026-04-18 12:12 | 12.07704 | 15.06396 | 5036 ft | 129 kts | 189° |
| 2026-04-18 12:12 | 12.06821 | 15.06260 | 5302 ft | 125 kts | 181° |
| 2026-04-18 12:12 | 12.05953 | 15.06301 | 5552 ft | 123 kts | 173° |
| 2026-04-18 12:12 | 12.05104 | 15.06439 | 5802 ft | 121 kts | 168° |
| 2026-04-18 12:13 | 12.04284 | 15.06619 | 6050 ft | 120 kts | 166° |
| 2026-04-18 12:13 | 12.03489 | 15.06820 | 6294 ft | 118 kts | 165° |
| 2026-04-18 12:13 | 12.02704 | 15.07028 | 6540 ft | 116 kts | 165° |
| 2026-04-18 12:13 | 12.01931 | 15.07241 | 6785 ft | 114 kts | 166° |
| 2026-04-18 12:14 | 12.01162 | 15.07450 | 7034 ft | 112 kts | 165° |
| 2026-04-18 12:14 | 12.00414 | 15.07653 | 7267 ft | 112 kts | 163° |
| 2026-04-18 12:14 | 11.99649 | 15.07867 | 7419 ft | 117 kts | 164° |
| 2026-04-18 12:14 | 11.98836 | 15.08089 | 7574 ft | 122 kts | 164° |
| 2026-04-18 12:15 | 11.97997 | 15.08323 | 7727 ft | 126 kts | 165° |
| 2026-04-18 12:15 | 11.97142 | 15.08559 | 7878 ft | 129 kts | 164° |
| 2026-04-18 12:15 | 11.96269 | 15.08797 | 8029 ft | 130 kts | 164° |
| 2026-04-18 12:15 | 11.95398 | 15.09039 | 8176 ft | 132 kts | 164° |
| 2026-04-18 12:16 | 11.94508 | 15.09283 | 8326 ft | 133 kts | 163° |
| 2026-04-18 12:16 | 11.93616 | 15.09530 | 8474 ft | 133 kts | 163° |
| 2026-04-18 12:16 | 11.92721 | 15.09779 | 8623 ft | 133 kts | 164° |
| 2026-04-18 12:16 | 11.91822 | 15.10027 | 8771 ft | 133 kts | 163° |
| 2026-04-18 12:17 | 11.90916 | 15.10277 | 8920 ft | 133 kts | 163° |
| 2026-04-18 12:17 | 11.90026 | 15.10520 | 9066 ft | 133 kts | 163° |
| 2026-04-18 12:17 | 11.89123 | 15.10773 | 9219 ft | 133 kts | 163° |
| 2026-04-18 12:17 | 11.88231 | 15.11019 | 9368 ft | 133 kts | 163° |
| 2026-04-18 12:18 | 11.87342 | 15.11263 | 9517 ft | 133 kts | 163° |
| 2026-04-18 12:18 | 11.86451 | 15.11510 | 9668 ft | 133 kts | 163° |
| 2026-04-18 12:18 | 11.85562 | 15.11756 | 9818 ft | 132 kts | 163° |
| 2026-04-18 12:18 | 11.84671 | 15.12004 | 9969 ft | 132 kts | 163° |
| 2026-04-18 12:19 | 11.83785 | 15.12247 | 10118 ft | 132 kts | 163° |
| 2026-04-18 12:19 | 11.82903 | 15.12490 | 10267 ft | 131 kts | 162° |
| 2026-04-18 12:19 | 11.82025 | 15.12733 | 10416 ft | 131 kts | 162° |
| 2026-04-18 12:19 | 11.81143 | 15.12976 | 10566 ft | 131 kts | 162° |
| 2026-04-18 12:20 | 11.80270 | 15.13219 | 10715 ft | 131 kts | 162° |
| 2026-04-18 12:20 | 11.79388 | 15.13461 | 10865 ft | 130 kts | 162° |
| 2026-04-18 12:20 | 11.78514 | 15.13703 | 11014 ft | 130 kts | 161° |
| 2026-04-18 12:20 | 11.77641 | 15.13945 | 11164 ft | 130 kts | 162° |
| 2026-04-18 12:21 | 11.76775 | 15.14184 | 11312 ft | 129 kts | 161° |
| 2026-04-18 12:21 | 11.75893 | 15.14427 | 11463 ft | 129 kts | 161° |
| 2026-04-18 12:21 | 11.75030 | 15.14666 | 11612 ft | 128 kts | 161° |
| 2026-04-18 12:21 | 11.74175 | 15.14902 | 11759 ft | 128 kts | 161° |
| 2026-04-18 12:22 | 11.73315 | 15.15139 | 11908 ft | 127 kts | 161° |
| 2026-04-18 12:22 | 11.72461 | 15.15375 | 12057 ft | 126 kts | 161° |
| 2026-04-18 12:22 | 11.71615 | 15.15609 | 12205 ft | 126 kts | 161° |
| 2026-04-18 12:22 | 11.70770 | 15.15842 | 12354 ft | 125 kts | 161° |
| 2026-04-18 12:23 | 11.69928 | 15.16075 | 12503 ft | 124 kts | 161° |
| 2026-04-18 12:23 | 11.69098 | 15.16304 | 12639 ft | 125 kts | 161° |
| 2026-04-18 12:23 | 11.68222 | 15.16547 | 12670 ft | 133 kts | 161° |
| 2026-04-18 12:23 | 11.67303 | 15.16801 | 12673 ft | 142 kts | 161° |
| 2026-04-18 12:24 | 11.66330 | 15.17070 | 12672 ft | 148 kts | 161° |
| 2026-04-18 12:24 | 11.65316 | 15.17351 | 12671 ft | 152 kts | 161° |
| 2026-04-18 12:24 | 11.64282 | 15.17637 | 12670 ft | 155 kts | 161° |
| 2026-04-18 12:24 | 11.63231 | 15.17928 | 12669 ft | 157 kts | 161° |
| 2026-04-18 12:25 | 11.62173 | 15.18221 | 12669 ft | 158 kts | 161° |
| 2026-04-18 12:25 | 11.61105 | 15.18515 | 12668 ft | 159 kts | 161° |
| 2026-04-18 12:25 | 11.60040 | 15.18809 | 12668 ft | 160 kts | 161° |
| 2026-04-18 12:25 | 11.58959 | 15.19107 | 12668 ft | 160 kts | 161° |
| 2026-04-18 12:26 | 11.57871 | 15.19407 | 12668 ft | 161 kts | 161° |
| 2026-04-18 12:26 | 11.56795 | 15.19704 | 12668 ft | 161 kts | 161° |
| 2026-04-18 12:26 | 11.55708 | 15.20004 | 12668 ft | 161 kts | 161° |
| 2026-04-18 12:26 | 11.54631 | 15.20301 | 12668 ft | 161 kts | 161° |
| 2026-04-18 12:27 | 11.53554 | 15.20598 | 12668 ft | 161 kts | 161° |
| 2026-04-18 12:27 | 11.52466 | 15.20897 | 12668 ft | 161 kts | 161° |
| 2026-04-18 12:27 | 11.51389 | 15.21194 | 12668 ft | 161 kts | 161° |
| 2026-04-18 12:27 | 11.50300 | 15.21494 | 12668 ft | 161 kts | 161° |
| 2026-04-18 12:28 | 11.49227 | 15.21790 | 12668 ft | 161 kts | 161° |
| 2026-04-18 12:28 | 11.48130 | 15.22092 | 12668 ft | 161 kts | 161° |
| 2026-04-18 12:28 | 11.47056 | 15.22388 | 12668 ft | 161 kts | 161° |
| 2026-04-18 12:28 | 11.45968 | 15.22688 | 12668 ft | 161 kts | 161° |
| 2026-04-18 12:29 | 11.44892 | 15.22984 | 12668 ft | 161 kts | 161° |
| 2026-04-18 12:29 | 11.43798 | 15.23286 | 12668 ft | 161 kts | 161° |
| 2026-04-18 12:29 | 11.42723 | 15.23582 | 12668 ft | 161 kts | 161° |
| 2026-04-18 12:29 | 11.41646 | 15.23879 | 12668 ft | 161 kts | 161° |
| 2026-04-18 12:30 | 11.40555 | 15.24179 | 12668 ft | 161 kts | 161° |
| 2026-04-18 12:30 | 11.39472 | 15.24478 | 12668 ft | 161 kts | 161° |
| 2026-04-18 12:30 | 11.38401 | 15.24772 | 12668 ft | 161 kts | 161° |
| 2026-04-18 12:30 | 11.37309 | 15.25073 | 12668 ft | 161 kts | 161° |
| 2026-04-18 12:31 | 11.36236 | 15.25369 | 12668 ft | 161 kts | 161° |
| 2026-04-18 12:31 | 11.35148 | 15.25668 | 12668 ft | 161 kts | 161° |
| 2026-04-18 12:31 | 11.34062 | 15.25967 | 12668 ft | 161 kts | 161° |
| 2026-04-18 12:31 | 11.32986 | 15.26263 | 12668 ft | 161 kts | 161° |
| 2026-04-18 12:32 | 11.31901 | 15.26562 | 12668 ft | 161 kts | 161° |
| 2026-04-18 12:32 | 11.30816 | 15.26860 | 12668 ft | 161 kts | 161° |
| 2026-04-18 12:32 | 11.29740 | 15.27157 | 12668 ft | 161 kts | 161° |
| 2026-04-18 12:32 | 11.28651 | 15.27456 | 12668 ft | 161 kts | 161° |
| 2026-04-18 12:33 | 11.27581 | 15.27751 | 12668 ft | 161 kts | 161° |
| 2026-04-18 12:33 | 11.26496 | 15.28049 | 12668 ft | 161 kts | 161° |
| 2026-04-18 12:33 | 11.25405 | 15.28350 | 12668 ft | 161 kts | 161° |
| 2026-04-18 12:33 | 11.24329 | 15.28645 | 12668 ft | 161 kts | 161° |
| 2026-04-18 12:34 | 11.23241 | 15.28945 | 12668 ft | 161 kts | 161° |
| 2026-04-18 12:34 | 11.22157 | 15.29243 | 12668 ft | 161 kts | 161° |
| 2026-04-18 12:34 | 11.21080 | 15.29539 | 12668 ft | 161 kts | 161° |
| 2026-04-18 12:34 | 11.20004 | 15.29835 | 12667 ft | 161 kts | 161° |
| 2026-04-18 12:35 | 11.18910 | 15.30136 | 12667 ft | 161 kts | 161° |
| 2026-04-18 12:35 | 11.17822 | 15.30435 | 12667 ft | 161 kts | 161° |
| 2026-04-18 12:35 | 11.16736 | 15.30734 | 12667 ft | 161 kts | 161° |
| 2026-04-18 12:35 | 11.15653 | 15.31031 | 12667 ft | 161 kts | 161° |
| 2026-04-18 12:36 | 11.14574 | 15.31328 | 12667 ft | 161 kts | 161° |
| 2026-04-18 12:36 | 11.13489 | 15.31626 | 12667 ft | 161 kts | 161° |
| 2026-04-18 12:36 | 11.12397 | 15.31927 | 12667 ft | 161 kts | 161° |
| 2026-04-18 12:36 | 11.11319 | 15.32223 | 12667 ft | 161 kts | 161° |
| 2026-04-18 12:37 | 11.10242 | 15.32519 | 12667 ft | 161 kts | 161° |
| 2026-04-18 12:37 | 11.09160 | 15.32816 | 12667 ft | 161 kts | 161° |
| 2026-04-18 12:37 | 11.08061 | 15.33118 | 12667 ft | 161 kts | 161° |
| 2026-04-18 12:37 | 11.06975 | 15.33417 | 12667 ft | 161 kts | 161° |
| 2026-04-18 12:38 | 11.05898 | 15.33713 | 12667 ft | 161 kts | 161° |
| 2026-04-18 12:38 | 11.04809 | 15.34012 | 12667 ft | 161 kts | 161° |
| 2026-04-18 12:38 | 11.03734 | 15.34307 | 12667 ft | 161 kts | 161° |
| 2026-04-18 12:38 | 11.02645 | 15.34605 | 12667 ft | 161 kts | 161° |
| 2026-04-18 12:39 | 11.01558 | 15.34902 | 12667 ft | 162 kts | 161° |
| 2026-04-18 12:39 | 11.00466 | 15.35201 | 12667 ft | 162 kts | 160° |
| 2026-04-18 12:39 | 10.99381 | 15.35499 | 12667 ft | 162 kts | 160° |
| 2026-04-18 12:39 | 10.98276 | 15.35803 | 12667 ft | 163 kts | 160° |
| 2026-04-18 12:40 | 10.97175 | 15.36105 | 12668 ft | 164 kts | 160° |
| 2026-04-18 12:40 | 10.96079 | 15.36406 | 12668 ft | 165 kts | 160° |
| 2026-04-18 12:40 | 10.94969 | 15.36711 | 12668 ft | 166 kts | 159° |
| 2026-04-18 12:40 | 10.93844 | 15.37020 | 12668 ft | 167 kts | 159° |
| 2026-04-18 12:41 | 10.92706 | 15.37333 | 12668 ft | 168 kts | 159° |
| 2026-04-18 12:41 | 10.91574 | 15.37644 | 12669 ft | 169 kts | 159° |
| 2026-04-18 12:41 | 10.90427 | 15.37960 | 12669 ft | 171 kts | 159° |
| 2026-04-18 12:41 | 10.89272 | 15.38277 | 12666 ft | 172 kts | 159° |
| 2026-04-18 12:42 | 10.88115 | 15.38595 | 12666 ft | 174 kts | 159° |
| 2026-04-18 12:42 | 10.86941 | 15.38917 | 12666 ft | 175 kts | 160° |
| 2026-04-18 12:42 | 10.85755 | 15.39242 | 12666 ft | 176 kts | 160° |
| 2026-04-18 12:42 | 10.84576 | 15.39565 | 12651 ft | 177 kts | 160° |
| 2026-04-18 12:43 | 10.83374 | 15.39895 | 12616 ft | 179 kts | 160° |
| 2026-04-18 12:43 | 10.82171 | 15.40224 | 12612 ft | 178 kts | 160° |
| 2026-04-18 12:43 | 10.80971 | 15.40553 | 12612 ft | 178 kts | 160° |
| 2026-04-18 12:43 | 10.79788 | 15.40877 | 12612 ft | 178 kts | 160° |
| 2026-04-18 12:44 | 10.78595 | 15.41204 | 12612 ft | 177 kts | 160° |
| 2026-04-18 12:44 | 10.77404 | 15.41530 | 12612 ft | 177 kts | 160° |
| 2026-04-18 12:44 | 10.76219 | 15.41855 | 12612 ft | 177 kts | 160° |
| 2026-04-18 12:44 | 10.75024 | 15.42183 | 12612 ft | 177 kts | 160° |
| 2026-04-18 12:45 | 10.73842 | 15.42507 | 12612 ft | 177 kts | 160° |
| 2026-04-18 12:45 | 10.72650 | 15.42834 | 12612 ft | 177 kts | 160° |
| 2026-04-18 12:45 | 10.71469 | 15.43157 | 12612 ft | 177 kts | 160° |
| 2026-04-18 12:45 | 10.70274 | 15.43485 | 12612 ft | 177 kts | 160° |
| 2026-04-18 12:46 | 10.69082 | 15.43811 | 12612 ft | 177 kts | 160° |
| 2026-04-18 12:46 | 10.67897 | 15.44136 | 12612 ft | 177 kts | 160° |
| 2026-04-18 12:46 | 10.66703 | 15.44464 | 12612 ft | 177 kts | 160° |
| 2026-04-18 12:46 | 10.65521 | 15.44787 | 12612 ft | 177 kts | 160° |
| 2026-04-18 12:47 | 10.64341 | 15.45111 | 12613 ft | 177 kts | 160° |
| 2026-04-18 12:47 | 10.63150 | 15.45437 | 12613 ft | 177 kts | 160° |
| 2026-04-18 12:47 | 10.61954 | 15.45764 | 12613 ft | 177 kts | 160° |
| 2026-04-18 12:47 | 10.60770 | 15.46089 | 12613 ft | 177 kts | 160° |
| 2026-04-18 12:48 | 10.59579 | 15.46415 | 12613 ft | 177 kts | 160° |
| 2026-04-18 12:48 | 10.58385 | 15.46742 | 12613 ft | 177 kts | 160° |
| 2026-04-18 12:48 | 10.57209 | 15.47064 | 12613 ft | 177 kts | 160° |
| 2026-04-18 12:48 | 10.56019 | 15.47390 | 12613 ft | 177 kts | 160° |
| 2026-04-18 12:49 | 10.54835 | 15.47714 | 12613 ft | 177 kts | 160° |
| 2026-04-18 12:49 | 10.53642 | 15.48041 | 12613 ft | 177 kts | 160° |
| 2026-04-18 12:49 | 10.52460 | 15.48364 | 12613 ft | 177 kts | 160° |
| 2026-04-18 12:49 | 10.51264 | 15.48692 | 12613 ft | 177 kts | 160° |
| 2026-04-18 12:50 | 10.50077 | 15.49016 | 12613 ft | 177 kts | 160° |
| 2026-04-18 12:50 | 10.48887 | 15.49342 | 12613 ft | 177 kts | 160° |
| 2026-04-18 12:50 | 10.47687 | 15.49670 | 12613 ft | 177 kts | 160° |
| 2026-04-18 12:50 | 10.46502 | 15.49995 | 12613 ft | 177 kts | 160° |
| 2026-04-18 12:51 | 10.45308 | 15.50321 | 12613 ft | 177 kts | 160° |
| 2026-04-18 12:51 | 10.44133 | 15.50643 | 12613 ft | 177 kts | 160° |
| 2026-04-18 12:51 | 10.42929 | 15.50972 | 12613 ft | 177 kts | 160° |
| 2026-04-18 12:51 | 10.41753 | 15.51294 | 12613 ft | 177 kts | 160° |
| 2026-04-18 12:52 | 10.40558 | 15.51621 | 12613 ft | 177 kts | 160° |
| 2026-04-18 12:52 | 10.39368 | 15.51946 | 12613 ft | 177 kts | 160° |
| 2026-04-18 12:52 | 10.38170 | 15.52274 | 12613 ft | 177 kts | 160° |
| 2026-04-18 12:52 | 10.36980 | 15.52599 | 12613 ft | 177 kts | 160° |
| 2026-04-18 12:53 | 10.35799 | 15.52922 | 12613 ft | 177 kts | 160° |
| 2026-04-18 12:53 | 10.34604 | 15.53249 | 12614 ft | 177 kts | 160° |
| 2026-04-18 12:53 | 10.33420 | 15.53572 | 12614 ft | 177 kts | 160° |
| 2026-04-18 12:53 | 10.32226 | 15.53899 | 12614 ft | 177 kts | 160° |
| 2026-04-18 12:54 | 10.31029 | 15.54226 | 12614 ft | 177 kts | 160° |
| 2026-04-18 12:54 | 10.29844 | 15.54550 | 12614 ft | 177 kts | 160° |
| 2026-04-18 12:54 | 10.28647 | 15.54877 | 12614 ft | 177 kts | 160° |
| 2026-04-18 12:54 | 10.27453 | 15.55204 | 12614 ft | 177 kts | 160° |
| 2026-04-18 12:55 | 10.26265 | 15.55528 | 12614 ft | 177 kts | 160° |
| 2026-04-18 12:55 | 10.25069 | 15.55855 | 12614 ft | 177 kts | 160° |
| 2026-04-18 12:55 | 10.23892 | 15.56176 | 12614 ft | 177 kts | 160° |
| 2026-04-18 12:55 | 10.22686 | 15.56506 | 12614 ft | 178 kts | 160° |
| 2026-04-18 12:56 | 10.21501 | 15.56830 | 12614 ft | 178 kts | 160° |
| 2026-04-18 12:56 | 10.20316 | 15.57153 | 12614 ft | 178 kts | 160° |
| 2026-04-18 12:56 | 10.19126 | 15.57478 | 12614 ft | 178 kts | 160° |
| 2026-04-18 12:56 | 10.17927 | 15.57806 | 12614 ft | 178 kts | 160° |
| 2026-04-18 12:57 | 10.16729 | 15.58133 | 12614 ft | 178 kts | 160° |
| 2026-04-18 12:57 | 10.15542 | 15.58457 | 12614 ft | 178 kts | 160° |
| 2026-04-18 12:57 | 10.14342 | 15.58784 | 12614 ft | 178 kts | 160° |
| 2026-04-18 12:57 | 10.13163 | 15.59106 | 12614 ft | 178 kts | 160° |
| 2026-04-18 12:58 | 10.11970 | 15.59431 | 12614 ft | 178 kts | 160° |
| 2026-04-18 12:58 | 10.10774 | 15.59757 | 12614 ft | 178 kts | 160° |
| 2026-04-18 12:58 | 10.09577 | 15.60083 | 12614 ft | 178 kts | 160° |
| 2026-04-18 12:58 | 10.08383 | 15.60409 | 12614 ft | 178 kts | 160° |
| 2026-04-18 12:59 | 10.07200 | 15.60731 | 12614 ft | 178 kts | 160° |
| 2026-04-18 12:59 | 10.05998 | 15.61058 | 12615 ft | 178 kts | 160° |
| 2026-04-18 12:59 | 10.04817 | 15.61380 | 12615 ft | 178 kts | 160° |
| 2026-04-18 12:59 | 10.03618 | 15.61707 | 12615 ft | 178 kts | 160° |
| 2026-04-18 13:00 | 10.02422 | 15.62033 | 12615 ft | 178 kts | 160° |
| 2026-04-18 13:00 | 10.01223 | 15.62359 | 12615 ft | 178 kts | 160° |
| 2026-04-18 13:00 | 10.00038 | 15.62682 | 12615 ft | 178 kts | 160° |
| 2026-04-18 13:00 | 9.98844 | 15.63007 | 12615 ft | 178 kts | 160° |
| 2026-04-18 13:01 | 9.97647 | 15.63333 | 12615 ft | 178 kts | 160° |
| 2026-04-18 13:01 | 9.96451 | 15.63659 | 12615 ft | 178 kts | 160° |
| 2026-04-18 13:01 | 9.95267 | 15.63982 | 12615 ft | 178 kts | 160° |
| 2026-04-18 13:01 | 9.94071 | 15.64307 | 12615 ft | 178 kts | 160° |
| 2026-04-18 13:02 | 9.92869 | 15.64634 | 12615 ft | 178 kts | 160° |
| 2026-04-18 13:02 | 9.91685 | 15.64957 | 12615 ft | 178 kts | 160° |
| 2026-04-18 13:02 | 9.90478 | 15.65285 | 12619 ft | 178 kts | 160° |
| 2026-04-18 13:02 | 9.89279 | 15.65611 | 12618 ft | 178 kts | 160° |
| 2026-04-18 13:03 | 9.88097 | 15.65933 | 12619 ft | 178 kts | 160° |
| 2026-04-18 13:03 | 9.85713 | 15.66582 | 12623 ft | 178 kts | 160° |
| 2026-04-18 13:03 | 9.84510 | 15.66910 | 12625 ft | 178 kts | 160° |
| 2026-04-18 13:04 | 9.83318 | 15.67234 | 12627 ft | 178 kts | 160° |
| 2026-04-18 13:04 | 9.82123 | 15.67559 | 12629 ft | 178 kts | 160° |
| 2026-04-18 13:04 | 9.80930 | 15.67884 | 12631 ft | 178 kts | 160° |
| 2026-04-18 13:04 | 9.79745 | 15.68206 | 12634 ft | 178 kts | 160° |
| 2026-04-18 13:05 | 9.78548 | 15.68532 | 12636 ft | 178 kts | 160° |
| 2026-04-18 13:05 | 9.77353 | 15.68857 | 12638 ft | 178 kts | 160° |
| 2026-04-18 13:05 | 9.76167 | 15.69179 | 12640 ft | 178 kts | 160° |
| 2026-04-18 13:05 | 9.74971 | 15.69505 | 12641 ft | 178 kts | 160° |
| 2026-04-18 13:06 | 9.73788 | 15.69826 | 12641 ft | 178 kts | 160° |
| 2026-04-18 13:06 | 9.72587 | 15.70153 | 12641 ft | 178 kts | 160° |
| 2026-04-18 13:06 | 9.71385 | 15.70480 | 12641 ft | 178 kts | 160° |
| 2026-04-18 13:06 | 9.70203 | 15.70801 | 12641 ft | 178 kts | 160° |
| 2026-04-18 13:07 | 9.69003 | 15.71127 | 12641 ft | 178 kts | 160° |
| 2026-04-18 13:07 | 9.67802 | 15.71454 | 12641 ft | 178 kts | 160° |
| 2026-04-18 13:07 | 9.66612 | 15.71777 | 12641 ft | 178 kts | 160° |
| 2026-04-18 13:07 | 9.65408 | 15.72104 | 12641 ft | 178 kts | 160° |
| 2026-04-18 13:08 | 9.64206 | 15.72431 | 12641 ft | 178 kts | 160° |
| 2026-04-18 13:08 | 9.63011 | 15.72756 | 12641 ft | 178 kts | 160° |
| 2026-04-18 13:08 | 9.61810 | 15.73082 | 12642 ft | 178 kts | 160° |
| 2026-04-18 13:08 | 9.60621 | 15.73405 | 12642 ft | 178 kts | 160° |
| 2026-04-18 13:09 | 9.59430 | 15.73729 | 12642 ft | 178 kts | 160° |
| 2026-04-18 13:09 | 9.58228 | 15.74056 | 12642 ft | 178 kts | 160° |
| 2026-04-18 13:09 | 9.57029 | 15.74381 | 12642 ft | 178 kts | 160° |
| 2026-04-18 13:09 | 9.55826 | 15.74708 | 12642 ft | 178 kts | 160° |
| 2026-04-18 13:10 | 9.54640 | 15.75030 | 12642 ft | 178 kts | 160° |
| 2026-04-18 13:10 | 9.53437 | 15.75357 | 12642 ft | 178 kts | 160° |
| 2026-04-18 13:10 | 9.52240 | 15.75682 | 12642 ft | 178 kts | 160° |
| 2026-04-18 13:10 | 9.51035 | 15.76009 | 12642 ft | 178 kts | 160° |
| 2026-04-18 13:11 | 9.49836 | 15.76335 | 12642 ft | 178 kts | 160° |
| 2026-04-18 13:11 | 9.48651 | 15.76657 | 12642 ft | 178 kts | 160° |
| 2026-04-18 13:11 | 9.47440 | 15.76985 | 12642 ft | 179 kts | 160° |
| 2026-04-18 13:11 | 9.46255 | 15.77307 | 12642 ft | 179 kts | 160° |
| 2026-04-18 13:12 | 9.45058 | 15.77632 | 12642 ft | 179 kts | 160° |
| 2026-04-18 13:12 | 9.43855 | 15.77958 | 12642 ft | 179 kts | 160° |
| 2026-04-18 13:12 | 9.42658 | 15.78283 | 12642 ft | 179 kts | 160° |
| 2026-04-18 13:12 | 9.41456 | 15.78610 | 12642 ft | 179 kts | 160° |
| 2026-04-18 13:13 | 9.40250 | 15.78937 | 12642 ft | 179 kts | 160° |
| 2026-04-18 13:13 | 9.39051 | 15.79263 | 12642 ft | 179 kts | 160° |
| 2026-04-18 13:13 | 9.37860 | 15.79587 | 12622 ft | 180 kts | 160° |
| 2026-04-18 13:13 | 9.36651 | 15.79916 | 12616 ft | 180 kts | 160° |
| 2026-04-18 13:14 | 9.35436 | 15.80246 | 12615 ft | 179 kts | 160° |
| 2026-04-18 13:14 | 9.34246 | 15.80569 | 12615 ft | 179 kts | 160° |
| 2026-04-18 13:14 | 9.33037 | 15.80897 | 12615 ft | 179 kts | 160° |
| 2026-04-18 13:14 | 9.31827 | 15.81226 | 12615 ft | 179 kts | 160° |
| 2026-04-18 13:15 | 9.30626 | 15.81552 | 12616 ft | 179 kts | 160° |
| 2026-04-18 13:15 | 9.29439 | 15.81875 | 12616 ft | 179 kts | 160° |
| 2026-04-18 13:15 | 9.28234 | 15.82202 | 12616 ft | 179 kts | 160° |
| 2026-04-18 13:15 | 9.27023 | 15.82531 | 12616 ft | 179 kts | 160° |
| 2026-04-18 13:16 | 9.25822 | 15.82857 | 12616 ft | 179 kts | 160° |
| 2026-04-18 13:16 | 9.24627 | 15.83182 | 12616 ft | 179 kts | 160° |
| 2026-04-18 13:16 | 9.23419 | 15.83510 | 12616 ft | 179 kts | 160° |
| 2026-04-18 13:16 | 9.22224 | 15.83834 | 12616 ft | 179 kts | 160° |
| 2026-04-18 13:17 | 9.21030 | 15.84158 | 12616 ft | 179 kts | 160° |
| 2026-04-18 13:17 | 9.19826 | 15.84485 | 12616 ft | 179 kts | 160° |
| 2026-04-18 13:17 | 9.18626 | 15.84811 | 12616 ft | 179 kts | 160° |
| 2026-04-18 13:17 | 9.17417 | 15.85139 | 12616 ft | 179 kts | 160° |
| 2026-04-18 13:18 | 9.16216 | 15.85465 | 12616 ft | 179 kts | 160° |
| 2026-04-18 13:18 | 9.15017 | 15.85791 | 12616 ft | 179 kts | 160° |
| 2026-04-18 13:18 | 9.13819 | 15.86116 | 12616 ft | 179 kts | 160° |
| 2026-04-18 13:18 | 9.12612 | 15.86443 | 12616 ft | 179 kts | 160° |
| 2026-04-18 13:19 | 9.11411 | 15.86769 | 12616 ft | 179 kts | 160° |
| 2026-04-18 13:19 | 9.10206 | 15.87096 | 12617 ft | 179 kts | 160° |
| 2026-04-18 13:19 | 9.09005 | 15.87421 | 12616 ft | 178 kts | 160° |
| 2026-04-18 13:19 | 9.07812 | 15.87744 | 12616 ft | 178 kts | 159° |
| 2026-04-18 13:20 | 9.06618 | 15.88068 | 12616 ft | 177 kts | 159° |
| 2026-04-18 13:20 | 9.05432 | 15.88390 | 12616 ft | 176 kts | 159° |
| 2026-04-18 13:20 | 9.04261 | 15.88708 | 12616 ft | 176 kts | 159° |
| 2026-04-18 13:20 | 9.03078 | 15.89029 | 12616 ft | 175 kts | 159° |
| 2026-04-18 13:21 | 9.01920 | 15.89343 | 12616 ft | 174 kts | 159° |
| 2026-04-18 13:21 | 9.00753 | 15.89660 | 12616 ft | 173 kts | 159° |
| 2026-04-18 13:21 | 8.99590 | 15.89975 | 12616 ft | 172 kts | 159° |
| 2026-04-18 13:21 | 8.98441 | 15.90287 | 12616 ft | 171 kts | 159° |
| 2026-04-18 13:22 | 8.97289 | 15.90600 | 12616 ft | 171 kts | 159° |
| 2026-04-18 13:22 | 8.96140 | 15.90911 | 12616 ft | 170 kts | 159° |
| 2026-04-18 13:22 | 8.95011 | 15.91218 | 12615 ft | 169 kts | 159° |
| 2026-04-18 13:22 | 8.93873 | 15.91526 | 12615 ft | 169 kts | 159° |
| 2026-04-18 13:23 | 8.92737 | 15.91834 | 12615 ft | 168 kts | 159° |
| 2026-04-18 13:23 | 8.91617 | 15.92138 | 12615 ft | 168 kts | 159° |
| 2026-04-18 13:23 | 8.90483 | 15.92445 | 12615 ft | 168 kts | 159° |
| 2026-04-18 13:23 | 8.89347 | 15.92753 | 12614 ft | 168 kts | 159° |
| 2026-04-18 13:24 | 8.88230 | 15.93056 | 12614 ft | 168 kts | 159° |
| 2026-04-18 13:24 | 8.87094 | 15.93364 | 12614 ft | 168 kts | 159° |
| 2026-04-18 13:24 | 8.85974 | 15.93667 | 12614 ft | 168 kts | 159° |
| 2026-04-18 13:24 | 8.84845 | 15.93973 | 12614 ft | 168 kts | 159° |
| 2026-04-18 13:25 | 8.83721 | 15.94278 | 12614 ft | 168 kts | 159° |
| 2026-04-18 13:25 | 8.82589 | 15.94585 | 12614 ft | 168 kts | 159° |
| 2026-04-18 13:25 | 8.81471 | 15.94887 | 12614 ft | 168 kts | 159° |
| 2026-04-18 13:25 | 8.80355 | 15.95190 | 12614 ft | 168 kts | 159° |
| 2026-04-18 13:26 | 8.79230 | 15.95494 | 12614 ft | 168 kts | 159° |
| 2026-04-18 13:26 | 8.78093 | 15.95802 | 12614 ft | 168 kts | 159° |
| 2026-04-18 13:26 | 8.76980 | 15.96104 | 12614 ft | 168 kts | 159° |
| 2026-04-18 13:26 | 8.75850 | 15.96410 | 12614 ft | 168 kts | 159° |
| 2026-04-18 13:27 | 8.74721 | 15.96715 | 12614 ft | 168 kts | 159° |
| 2026-04-18 13:27 | 8.73602 | 15.97018 | 12614 ft | 167 kts | 159° |
| 2026-04-18 13:27 | 8.72468 | 15.97325 | 12614 ft | 168 kts | 159° |
| 2026-04-18 13:27 | 8.71350 | 15.97628 | 12614 ft | 168 kts | 159° |
| 2026-04-18 13:28 | 8.70219 | 15.97934 | 12614 ft | 168 kts | 159° |
| 2026-04-18 13:28 | 8.69099 | 15.98237 | 12614 ft | 168 kts | 159° |
| 2026-04-18 13:28 | 8.67975 | 15.98542 | 12614 ft | 168 kts | 159° |
| 2026-04-18 13:28 | 8.66857 | 15.98844 | 12614 ft | 168 kts | 159° |
| 2026-04-18 13:29 | 8.65727 | 15.99150 | 12614 ft | 168 kts | 159° |
| 2026-04-18 13:29 | 8.64597 | 15.99456 | 12614 ft | 168 kts | 159° |
| 2026-04-18 13:29 | 8.63476 | 15.99759 | 12614 ft | 168 kts | 159° |
| 2026-04-18 13:29 | 8.62352 | 16.00063 | 12614 ft | 168 kts | 159° |
| 2026-04-18 13:30 | 8.61231 | 16.00367 | 12614 ft | 168 kts | 159° |
| 2026-04-18 13:30 | 8.60102 | 16.00672 | 12614 ft | 168 kts | 159° |
| 2026-04-18 13:30 | 8.58976 | 16.00977 | 12614 ft | 168 kts | 159° |
| 2026-04-18 13:30 | 8.57844 | 16.01283 | 12614 ft | 168 kts | 159° |
| 2026-04-18 13:31 | 8.56717 | 16.01588 | 12614 ft | 168 kts | 159° |
| 2026-04-18 13:31 | 8.55604 | 16.01889 | 12614 ft | 168 kts | 159° |
| 2026-04-18 13:31 | 8.54473 | 16.02195 | 12614 ft | 168 kts | 159° |
| 2026-04-18 13:31 | 8.53356 | 16.02497 | 12614 ft | 168 kts | 159° |
| 2026-04-18 13:32 | 8.52222 | 16.02804 | 12614 ft | 168 kts | 159° |
| 2026-04-18 13:32 | 8.51094 | 16.03109 | 12614 ft | 168 kts | 159° |
| 2026-04-18 13:32 | 8.49969 | 16.03413 | 12614 ft | 168 kts | 159° |
| 2026-04-18 13:32 | 8.48848 | 16.03716 | 12614 ft | 168 kts | 159° |
| 2026-04-18 13:33 | 8.47715 | 16.04022 | 12614 ft | 168 kts | 159° |
| 2026-04-18 13:33 | 8.46601 | 16.04324 | 12614 ft | 168 kts | 159° |
| 2026-04-18 13:33 | 8.45473 | 16.04629 | 12614 ft | 168 kts | 159° |
| 2026-04-18 13:33 | 8.44342 | 16.04934 | 12614 ft | 168 kts | 159° |
| 2026-04-18 13:34 | 8.43214 | 16.05239 | 12614 ft | 168 kts | 159° |
| 2026-04-18 13:34 | 8.42099 | 16.05541 | 12614 ft | 168 kts | 159° |
| 2026-04-18 13:34 | 8.40970 | 16.05846 | 12614 ft | 168 kts | 159° |
| 2026-04-18 13:34 | 8.39839 | 16.06151 | 12614 ft | 168 kts | 159° |
| 2026-04-18 13:35 | 8.38723 | 16.06453 | 12614 ft | 168 kts | 159° |
| 2026-04-18 13:35 | 8.37592 | 16.06759 | 12614 ft | 168 kts | 159° |
| 2026-04-18 13:35 | 8.36467 | 16.07063 | 12614 ft | 168 kts | 159° |
| 2026-04-18 13:35 | 8.35346 | 16.07366 | 12614 ft | 168 kts | 159° |
| 2026-04-18 13:36 | 8.34224 | 16.07669 | 12614 ft | 168 kts | 159° |
| 2026-04-18 13:36 | 8.33089 | 16.07975 | 12614 ft | 168 kts | 159° |
| 2026-04-18 13:36 | 8.31971 | 16.08278 | 12614 ft | 168 kts | 159° |
| 2026-04-18 13:36 | 8.30838 | 16.08583 | 12614 ft | 168 kts | 159° |
| 2026-04-18 13:37 | 8.29707 | 16.08889 | 12614 ft | 168 kts | 159° |
| 2026-04-18 13:37 | 8.28588 | 16.09191 | 12614 ft | 168 kts | 159° |
| 2026-04-18 13:37 | 8.27462 | 16.09495 | 12614 ft | 168 kts | 159° |
| 2026-04-18 13:37 | 8.26336 | 16.09799 | 12614 ft | 168 kts | 159° |
| 2026-04-18 13:38 | 8.25207 | 16.10104 | 12614 ft | 168 kts | 159° |
| 2026-04-18 13:38 | 8.24073 | 16.10411 | 12614 ft | 168 kts | 159° |
| 2026-04-18 13:38 | 8.22956 | 16.10712 | 12614 ft | 168 kts | 159° |
| 2026-04-18 13:38 | 8.21825 | 16.11018 | 12614 ft | 168 kts | 159° |
| 2026-04-18 13:39 | 8.20697 | 16.11322 | 12614 ft | 168 kts | 159° |
| 2026-04-18 13:39 | 8.19579 | 16.11624 | 12614 ft | 168 kts | 159° |
| 2026-04-18 13:39 | 8.18447 | 16.11930 | 12614 ft | 168 kts | 159° |
| 2026-04-18 13:39 | 8.17318 | 16.12234 | 12614 ft | 168 kts | 159° |
| 2026-04-18 13:40 | 8.16202 | 16.12536 | 12614 ft | 168 kts | 159° |
| 2026-04-18 13:40 | 8.15065 | 16.12843 | 12614 ft | 168 kts | 159° |
| 2026-04-18 13:40 | 8.13941 | 16.13146 | 12614 ft | 168 kts | 159° |
| 2026-04-18 13:40 | 8.12813 | 16.13450 | 12614 ft | 168 kts | 159° |
| 2026-04-18 13:41 | 8.11682 | 16.13755 | 12614 ft | 168 kts | 159° |
| 2026-04-18 13:41 | 8.10568 | 16.14056 | 12614 ft | 168 kts | 159° |
| 2026-04-18 13:41 | 8.09434 | 16.14362 | 12614 ft | 168 kts | 159° |
| 2026-04-18 13:41 | 8.08312 | 16.14665 | 12614 ft | 168 kts | 159° |
| 2026-04-18 13:42 | 8.07181 | 16.14970 | 12614 ft | 168 kts | 159° |
| 2026-04-18 13:42 | 8.06062 | 16.15272 | 12614 ft | 168 kts | 159° |
| 2026-04-18 13:42 | 8.04919 | 16.15580 | 12614 ft | 168 kts | 159° |
| 2026-04-18 13:42 | 8.03799 | 16.15883 | 12614 ft | 168 kts | 159° |
| 2026-04-18 13:43 | 8.02677 | 16.16185 | 12614 ft | 168 kts | 159° |
| 2026-04-18 13:43 | 8.01548 | 16.16490 | 12614 ft | 168 kts | 159° |
| 2026-04-18 13:43 | 8.00421 | 16.16793 | 12614 ft | 168 kts | 159° |
| 2026-04-18 13:43 | 7.99299 | 16.17096 | 12614 ft | 168 kts | 159° |
| 2026-04-18 13:44 | 7.98164 | 16.17402 | 12616 ft | 168 kts | 159° |
| 2026-04-18 13:44 | 7.97052 | 16.17701 | 12685 ft | 164 kts | 159° |
| 2026-04-18 13:44 | 7.95950 | 16.17998 | 12695 ft | 165 kts | 159° |
| 2026-04-18 13:44 | 7.94832 | 16.18300 | 12696 ft | 166 kts | 159° |
| 2026-04-18 13:45 | 7.93723 | 16.18599 | 12696 ft | 167 kts | 159° |
| 2026-04-18 13:45 | 7.92599 | 16.18902 | 12696 ft | 167 kts | 159° |
| 2026-04-18 13:45 | 7.91465 | 16.19207 | 12696 ft | 168 kts | 159° |
| 2026-04-18 13:45 | 7.90341 | 16.19510 | 12696 ft | 168 kts | 159° |
| 2026-04-18 13:46 | 7.89205 | 16.19816 | 12694 ft | 168 kts | 159° |
| 2026-04-18 13:46 | 7.88091 | 16.20116 | 12694 ft | 168 kts | 159° |
| 2026-04-18 13:46 | 7.86959 | 16.20421 | 12694 ft | 168 kts | 159° |
| 2026-04-18 13:46 | 7.85823 | 16.20726 | 12694 ft | 168 kts | 159° |
| 2026-04-18 13:47 | 7.84698 | 16.21029 | 12694 ft | 168 kts | 159° |
| 2026-04-18 13:47 | 7.83583 | 16.21330 | 12694 ft | 168 kts | 159° |
| 2026-04-18 13:47 | 7.82449 | 16.21635 | 12694 ft | 168 kts | 159° |
| 2026-04-18 13:47 | 7.81318 | 16.21939 | 12694 ft | 168 kts | 159° |
| 2026-04-18 13:48 | 7.80196 | 16.22242 | 12694 ft | 168 kts | 159° |
| 2026-04-18 13:48 | 7.79060 | 16.22547 | 12694 ft | 168 kts | 159° |
| 2026-04-18 13:48 | 7.77931 | 16.22851 | 12694 ft | 168 kts | 159° |
| 2026-04-18 13:48 | 7.76805 | 16.23154 | 12694 ft | 168 kts | 159° |
| 2026-04-18 13:49 | 7.75684 | 16.23456 | 12694 ft | 168 kts | 159° |
| 2026-04-18 13:49 | 7.74552 | 16.23761 | 12694 ft | 168 kts | 159° |
| 2026-04-18 13:49 | 7.73432 | 16.24062 | 12694 ft | 168 kts | 159° |
| 2026-04-18 13:49 | 7.72307 | 16.24365 | 12694 ft | 168 kts | 159° |
| 2026-04-18 13:50 | 7.71179 | 16.24668 | 12694 ft | 168 kts | 159° |
| 2026-04-18 13:50 | 7.70057 | 16.24970 | 12694 ft | 168 kts | 159° |
| 2026-04-18 13:50 | 7.68917 | 16.25277 | 12694 ft | 168 kts | 159° |
| 2026-04-18 13:50 | 7.67788 | 16.25581 | 12694 ft | 168 kts | 159° |
| 2026-04-18 13:51 | 7.66673 | 16.25881 | 12694 ft | 168 kts | 159° |
| 2026-04-18 13:51 | 7.65541 | 16.26186 | 12694 ft | 168 kts | 159° |
| 2026-04-18 13:51 | 7.64405 | 16.26491 | 12694 ft | 168 kts | 159° |
| 2026-04-18 13:51 | 7.63287 | 16.26792 | 12694 ft | 168 kts | 159° |
| 2026-04-18 13:52 | 7.62156 | 16.27096 | 12694 ft | 168 kts | 159° |
| 2026-04-18 13:52 | 7.61037 | 16.27397 | 12694 ft | 168 kts | 159° |
| 2026-04-18 13:52 | 7.59897 | 16.27704 | 12694 ft | 168 kts | 159° |
| 2026-04-18 13:52 | 7.58768 | 16.28007 | 12694 ft | 168 kts | 159° |
| 2026-04-18 13:53 | 7.57650 | 16.28308 | 12694 ft | 168 kts | 159° |
| 2026-04-18 13:53 | 7.56513 | 16.28614 | 12694 ft | 168 kts | 159° |
| 2026-04-18 13:53 | 7.55382 | 16.28918 | 12694 ft | 168 kts | 159° |
| 2026-04-18 13:53 | 7.54266 | 16.29218 | 12694 ft | 168 kts | 159° |
| 2026-04-18 13:54 | 7.53130 | 16.29523 | 12694 ft | 168 kts | 159° |
| 2026-04-18 13:54 | 7.52013 | 16.29824 | 12694 ft | 168 kts | 159° |
| 2026-04-18 13:54 | 7.50877 | 16.30129 | 12694 ft | 168 kts | 159° |
| 2026-04-18 13:54 | 7.49747 | 16.30433 | 12694 ft | 168 kts | 159° |
| 2026-04-18 13:55 | 7.48615 | 16.30737 | 12694 ft | 168 kts | 159° |
| 2026-04-18 13:55 | 7.47488 | 16.31040 | 12694 ft | 168 kts | 159° |
| 2026-04-18 13:55 | 7.46372 | 16.31340 | 12694 ft | 168 kts | 159° |
| 2026-04-18 13:55 | 7.45234 | 16.31646 | 12694 ft | 168 kts | 159° |
| 2026-04-18 13:56 | 7.44109 | 16.31948 | 12694 ft | 168 kts | 159° |
| 2026-04-18 13:56 | 7.42985 | 16.32250 | 12694 ft | 168 kts | 159° |
| 2026-04-18 13:56 | 7.41856 | 16.32554 | 12694 ft | 168 kts | 159° |
| 2026-04-18 13:56 | 7.40718 | 16.32859 | 12694 ft | 168 kts | 159° |
| 2026-04-18 13:57 | 7.39598 | 16.33160 | 12694 ft | 168 kts | 159° |
| 2026-04-18 13:57 | 7.38475 | 16.33462 | 12694 ft | 168 kts | 159° |
| 2026-04-18 13:57 | 7.37340 | 16.33767 | 12694 ft | 168 kts | 159° |
| 2026-04-18 13:57 | 7.36214 | 16.34069 | 12694 ft | 168 kts | 159° |
| 2026-04-18 13:58 | 7.35080 | 16.34374 | 12694 ft | 168 kts | 159° |
| 2026-04-18 13:58 | 7.33945 | 16.34679 | 12694 ft | 168 kts | 159° |
| 2026-04-18 13:58 | 7.32827 | 16.34979 | 12694 ft | 168 kts | 159° |
| 2026-04-18 13:58 | 7.31694 | 16.35284 | 12694 ft | 168 kts | 159° |
| 2026-04-18 13:59 | 7.30571 | 16.35585 | 12694 ft | 168 kts | 159° |
| 2026-04-18 13:59 | 7.29437 | 16.35890 | 12694 ft | 168 kts | 159° |
| 2026-04-18 13:59 | 7.28314 | 16.36191 | 12694 ft | 168 kts | 159° |
| 2026-04-18 13:59 | 7.27178 | 16.36497 | 12694 ft | 168 kts | 159° |
| 2026-04-18 14:00 | 7.26057 | 16.36798 | 12694 ft | 168 kts | 159° |
| 2026-04-18 14:00 | 7.24927 | 16.37101 | 12694 ft | 168 kts | 159° |
| 2026-04-18 14:00 | 7.23795 | 16.37405 | 12694 ft | 168 kts | 159° |
| 2026-04-18 14:00 | 7.22658 | 16.37710 | 12694 ft | 168 kts | 159° |
| 2026-04-18 14:01 | 7.21541 | 16.38010 | 12694 ft | 168 kts | 159° |
| 2026-04-18 14:01 | 7.20406 | 16.38315 | 12694 ft | 168 kts | 159° |
| 2026-04-18 14:01 | 7.19271 | 16.38619 | 12694 ft | 168 kts | 159° |
| 2026-04-18 14:01 | 7.18155 | 16.38919 | 12694 ft | 168 kts | 159° |
| 2026-04-18 14:02 | 7.17022 | 16.39223 | 12694 ft | 168 kts | 159° |
| 2026-04-18 14:02 | 7.15897 | 16.39525 | 12694 ft | 168 kts | 159° |
| 2026-04-18 14:02 | 7.14765 | 16.39829 | 12694 ft | 168 kts | 159° |
| 2026-04-18 14:02 | 7.13637 | 16.40132 | 12694 ft | 168 kts | 159° |
| 2026-04-18 14:03 | 7.12499 | 16.40437 | 12694 ft | 168 kts | 159° |
| 2026-04-18 14:03 | 7.11378 | 16.40738 | 12694 ft | 168 kts | 159° |
| 2026-04-18 14:03 | 7.10245 | 16.41042 | 12694 ft | 168 kts | 159° |
| 2026-04-18 14:03 | 7.09114 | 16.41346 | 12694 ft | 168 kts | 159° |
| 2026-04-18 14:04 | 7.07992 | 16.41647 | 12694 ft | 168 kts | 159° |
| 2026-04-18 14:04 | 7.06850 | 16.41953 | 12694 ft | 168 kts | 159° |
| 2026-04-18 14:04 | 7.05727 | 16.42254 | 12694 ft | 168 kts | 159° |
| 2026-04-18 14:04 | 7.04599 | 16.42557 | 12694 ft | 168 kts | 159° |
| 2026-04-18 14:05 | 7.03467 | 16.42861 | 12694 ft | 168 kts | 159° |
| 2026-04-18 14:05 | 7.02347 | 16.43161 | 12694 ft | 168 kts | 159° |
| 2026-04-18 14:05 | 7.01212 | 16.43465 | 12694 ft | 168 kts | 159° |
| 2026-04-18 14:05 | 7.00093 | 16.43765 | 12694 ft | 167 kts | 159° |
| 2026-04-18 14:06 | 6.98967 | 16.44067 | 12694 ft | 167 kts | 159° |
| 2026-04-18 14:06 | 6.97846 | 16.44368 | 12694 ft | 167 kts | 159° |
| 2026-04-18 14:06 | 6.96722 | 16.44669 | 12694 ft | 166 kts | 159° |
| 2026-04-18 14:06 | 6.95613 | 16.44966 | 12694 ft | 166 kts | 159° |
| 2026-04-18 14:07 | 6.94508 | 16.45263 | 12694 ft | 165 kts | 159° |
| 2026-04-18 14:07 | 6.93398 | 16.45561 | 12694 ft | 165 kts | 159° |
| 2026-04-18 14:07 | 6.92302 | 16.45855 | 12693 ft | 164 kts | 159° |
| 2026-04-18 14:07 | 6.91189 | 16.46153 | 12693 ft | 164 kts | 159° |
| 2026-04-18 14:08 | 6.89009 | 16.46738 | 12693 ft | 162 kts | 159° |
| 2026-04-18 14:08 | 6.87911 | 16.47032 | 12693 ft | 162 kts | 159° |
| 2026-04-18 14:08 | 6.86818 | 16.47325 | 12693 ft | 162 kts | 159° |
| 2026-04-18 14:09 | 6.85741 | 16.47614 | 12693 ft | 161 kts | 159° |
| 2026-04-18 14:09 | 6.84667 | 16.47902 | 12693 ft | 161 kts | 159° |
| 2026-04-18 14:09 | 6.83578 | 16.48194 | 12693 ft | 161 kts | 159° |
| 2026-04-18 14:09 | 6.82503 | 16.48482 | 12693 ft | 161 kts | 159° |
| 2026-04-18 14:10 | 6.81418 | 16.48773 | 12693 ft | 161 kts | 159° |
| 2026-04-18 14:10 | 6.80333 | 16.49064 | 12693 ft | 161 kts | 159° |
| 2026-04-18 14:10 | 6.79252 | 16.49353 | 12693 ft | 161 kts | 159° |
| 2026-04-18 14:10 | 6.78181 | 16.49640 | 12693 ft | 161 kts | 159° |
| 2026-04-18 14:11 | 6.77092 | 16.49932 | 12693 ft | 161 kts | 159° |
| 2026-04-18 14:11 | 6.76011 | 16.50222 | 12693 ft | 161 kts | 159° |
| 2026-04-18 14:11 | 6.74938 | 16.50509 | 12693 ft | 161 kts | 159° |
| 2026-04-18 14:11 | 6.73858 | 16.50799 | 12693 ft | 161 kts | 159° |
| 2026-04-18 14:12 | 6.72771 | 16.51090 | 12693 ft | 161 kts | 159° |
| 2026-04-18 14:12 | 6.71700 | 16.51377 | 12693 ft | 161 kts | 159° |
| 2026-04-18 14:12 | 6.70609 | 16.51669 | 12689 ft | 161 kts | 159° |
| 2026-04-18 14:12 | 6.69525 | 16.51959 | 12683 ft | 161 kts | 159° |
| 2026-04-18 14:13 | 6.68439 | 16.52250 | 12678 ft | 161 kts | 159° |
| 2026-04-18 14:13 | 6.67366 | 16.52538 | 12672 ft | 161 kts | 159° |
| 2026-04-18 14:13 | 6.66278 | 16.52829 | 12667 ft | 161 kts | 159° |
| 2026-04-18 14:13 | 6.65187 | 16.53121 | 12661 ft | 161 kts | 159° |
| 2026-04-18 14:14 | 6.64103 | 16.53411 | 12656 ft | 161 kts | 159° |
| 2026-04-18 14:14 | 6.63023 | 16.53700 | 12650 ft | 161 kts | 159° |
| 2026-04-18 14:14 | 6.61934 | 16.53992 | 12645 ft | 161 kts | 159° |
| 2026-04-18 14:14 | 6.60858 | 16.54280 | 12633 ft | 162 kts | 159° |
| 2026-04-18 14:15 | 6.59758 | 16.54575 | 12614 ft | 162 kts | 159° |
| 2026-04-18 14:15 | 6.58666 | 16.54867 | 12612 ft | 162 kts | 159° |
| 2026-04-18 14:15 | 6.57591 | 16.55155 | 12611 ft | 161 kts | 159° |
| 2026-04-18 14:15 | 6.56498 | 16.55447 | 12612 ft | 161 kts | 159° |
| 2026-04-18 14:16 | 6.55428 | 16.55733 | 12612 ft | 161 kts | 159° |
| 2026-04-18 14:16 | 6.54340 | 16.56025 | 12612 ft | 161 kts | 159° |
| 2026-04-18 14:16 | 6.53261 | 16.56314 | 12612 ft | 161 kts | 159° |
| 2026-04-18 14:16 | 6.52182 | 16.56602 | 12612 ft | 161 kts | 159° |
| 2026-04-18 14:17 | 6.51099 | 16.56892 | 12612 ft | 161 kts | 159° |
| 2026-04-18 14:17 | 6.50026 | 16.57180 | 12612 ft | 161 kts | 159° |
| 2026-04-18 14:17 | 6.47869 | 16.57757 | 12611 ft | 161 kts | 159° |
| 2026-04-18 14:18 | 6.45713 | 16.58334 | 12611 ft | 161 kts | 159° |
| 2026-04-18 14:18 | 6.44627 | 16.58625 | 12611 ft | 161 kts | 159° |
| 2026-04-18 14:19 | 6.42473 | 16.59201 | 12611 ft | 161 kts | 159° |
| 2026-04-18 14:19 | 6.41404 | 16.59487 | 12611 ft | 161 kts | 159° |
| 2026-04-18 14:19 | 6.39240 | 16.60066 | 12611 ft | 161 kts | 159° |
| 2026-04-18 14:20 | 6.38171 | 16.60352 | 12611 ft | 161 kts | 159° |
| 2026-04-18 14:20 | 6.37086 | 16.60642 | 12611 ft | 161 kts | 159° |
| 2026-04-18 14:20 | 6.36012 | 16.60929 | 12611 ft | 161 kts | 159° |
| 2026-04-18 14:20 | 6.34924 | 16.61220 | 12611 ft | 161 kts | 159° |
| 2026-04-18 14:21 | 6.33845 | 16.61509 | 12611 ft | 161 kts | 159° |
| 2026-04-18 14:21 | 6.32777 | 16.61795 | 12611 ft | 161 kts | 159° |
| 2026-04-18 14:21 | 6.31703 | 16.62082 | 12611 ft | 161 kts | 159° |
| 2026-04-18 14:22 | 6.29546 | 16.62659 | 12611 ft | 161 kts | 159° |
| 2026-04-18 14:22 | 6.28457 | 16.62950 | 12611 ft | 161 kts | 159° |
| 2026-04-18 14:22 | 6.26311 | 16.63524 | 12611 ft | 161 kts | 159° |
| 2026-04-18 14:23 | 6.25232 | 16.63812 | 12611 ft | 161 kts | 159° |
| 2026-04-18 14:23 | 6.23063 | 16.64392 | 12611 ft | 161 kts | 159° |
| 2026-04-18 14:23 | 6.21983 | 16.64681 | 12611 ft | 161 kts | 159° |
| 2026-04-18 14:24 | 6.19835 | 16.65255 | 12615 ft | 161 kts | 159° |
| 2026-04-18 14:24 | 6.18751 | 16.65545 | 12616 ft | 161 kts | 159° |
| 2026-04-18 14:24 | 6.17664 | 16.65836 | 12616 ft | 161 kts | 159° |
| 2026-04-18 14:25 | 6.16575 | 16.66127 | 12616 ft | 162 kts | 159° |
| 2026-04-18 14:25 | 6.15501 | 16.66414 | 12616 ft | 162 kts | 159° |
| 2026-04-18 14:25 | 6.14409 | 16.66706 | 12616 ft | 162 kts | 159° |
| 2026-04-18 14:25 | 6.13329 | 16.66995 | 12616 ft | 162 kts | 159° |
| 2026-04-18 14:26 | 6.12235 | 16.67287 | 12616 ft | 162 kts | 159° |
| 2026-04-18 14:26 | 6.11157 | 16.67575 | 12616 ft | 162 kts | 159° |
| 2026-04-18 14:26 | 6.10060 | 16.67869 | 12616 ft | 162 kts | 159° |
| 2026-04-18 14:26 | 6.08987 | 16.68155 | 12616 ft | 162 kts | 159° |
| 2026-04-18 14:27 | 6.07889 | 16.68449 | 12616 ft | 162 kts | 159° |
| 2026-04-18 14:27 | 6.06808 | 16.68738 | 12616 ft | 162 kts | 159° |
| 2026-04-18 14:27 | 6.05714 | 16.69030 | 12616 ft | 162 kts | 159° |
| 2026-04-18 14:27 | 6.04636 | 16.69319 | 12616 ft | 162 kts | 159° |
| 2026-04-18 14:28 | 6.03542 | 16.69611 | 12616 ft | 162 kts | 159° |
| 2026-04-18 14:28 | 6.02453 | 16.69902 | 12616 ft | 162 kts | 159° |
| 2026-04-18 14:28 | 6.01373 | 16.70191 | 12616 ft | 162 kts | 159° |
| 2026-04-18 14:28 | 6.00288 | 16.70481 | 12616 ft | 162 kts | 159° |
| 2026-04-18 14:29 | 5.99193 | 16.70773 | 12616 ft | 162 kts | 159° |
| 2026-04-18 14:29 | 5.98105 | 16.71064 | 12616 ft | 162 kts | 159° |
| 2026-04-18 14:29 | 5.97025 | 16.71353 | 12616 ft | 162 kts | 159° |
| 2026-04-18 14:29 | 5.95946 | 16.71641 | 12616 ft | 162 kts | 159° |
| 2026-04-18 14:30 | 5.94847 | 16.71935 | 12616 ft | 162 kts | 159° |
| 2026-04-18 14:30 | 5.93771 | 16.72222 | 12616 ft | 162 kts | 159° |
| 2026-04-18 14:30 | 5.92678 | 16.72514 | 12616 ft | 162 kts | 159° |
| 2026-04-18 14:30 | 5.91592 | 16.72805 | 12616 ft | 162 kts | 159° |
| 2026-04-18 14:31 | 5.90501 | 16.73096 | 12615 ft | 162 kts | 159° |
| 2026-04-18 14:31 | 5.89406 | 16.73389 | 12616 ft | 162 kts | 159° |
| 2026-04-18 14:31 | 5.88330 | 16.73676 | 12616 ft | 162 kts | 159° |
| 2026-04-18 14:31 | 5.87237 | 16.73968 | 12616 ft | 162 kts | 159° |
| 2026-04-18 14:32 | 5.86160 | 16.74256 | 12616 ft | 162 kts | 159° |
| 2026-04-18 14:32 | 5.85062 | 16.74549 | 12616 ft | 162 kts | 159° |
| 2026-04-18 14:32 | 5.83986 | 16.74836 | 12616 ft | 162 kts | 159° |
| 2026-04-18 14:32 | 5.82888 | 16.75129 | 12616 ft | 162 kts | 159° |
| 2026-04-18 14:33 | 5.81803 | 16.75419 | 12616 ft | 162 kts | 159° |
| 2026-04-18 14:33 | 5.80719 | 16.75709 | 12616 ft | 162 kts | 159° |
| 2026-04-18 14:33 | 5.79625 | 16.76001 | 12615 ft | 162 kts | 159° |
| 2026-04-18 14:33 | 5.78547 | 16.76289 | 12615 ft | 162 kts | 159° |
| 2026-04-18 14:34 | 5.77457 | 16.76580 | 12615 ft | 162 kts | 159° |
| 2026-04-18 14:34 | 5.76370 | 16.76870 | 12615 ft | 162 kts | 159° |
| 2026-04-18 14:34 | 5.75278 | 16.77162 | 12615 ft | 162 kts | 159° |
| 2026-04-18 14:34 | 5.74200 | 16.77450 | 12615 ft | 162 kts | 159° |
| 2026-04-18 14:35 | 5.73114 | 16.77740 | 12615 ft | 162 kts | 159° |
| 2026-04-18 14:35 | 5.72023 | 16.78031 | 12615 ft | 162 kts | 159° |
| 2026-04-18 14:35 | 5.70932 | 16.78322 | 12615 ft | 162 kts | 159° |
| 2026-04-18 14:35 | 5.69845 | 16.78612 | 12615 ft | 162 kts | 159° |
| 2026-04-18 14:36 | 5.68764 | 16.78901 | 12615 ft | 162 kts | 159° |
| 2026-04-18 14:36 | 5.67673 | 16.79192 | 12615 ft | 162 kts | 159° |
| 2026-04-18 14:36 | 5.66595 | 16.79480 | 12615 ft | 162 kts | 159° |
| 2026-04-18 14:36 | 5.65497 | 16.79773 | 12615 ft | 162 kts | 159° |
| 2026-04-18 14:37 | 5.64421 | 16.80060 | 12615 ft | 162 kts | 159° |
| 2026-04-18 14:37 | 5.63331 | 16.80351 | 12615 ft | 162 kts | 159° |
| 2026-04-18 14:37 | 5.62239 | 16.80643 | 12615 ft | 162 kts | 159° |
| 2026-04-18 14:37 | 5.61154 | 16.80932 | 12615 ft | 162 kts | 159° |
| 2026-04-18 14:38 | 5.60061 | 16.81224 | 12615 ft | 162 kts | 159° |
| 2026-04-18 14:38 | 5.58985 | 16.81511 | 12615 ft | 162 kts | 159° |
| 2026-04-18 14:38 | 5.57896 | 16.81802 | 12615 ft | 162 kts | 159° |
| 2026-04-18 14:38 | 5.56811 | 16.82091 | 12615 ft | 162 kts | 159° |
| 2026-04-18 14:39 | 5.55716 | 16.82383 | 12615 ft | 162 kts | 159° |
| 2026-04-18 14:39 | 5.54636 | 16.82672 | 12615 ft | 162 kts | 159° |
| 2026-04-18 14:39 | 5.53539 | 16.82964 | 12615 ft | 162 kts | 159° |
| 2026-04-18 14:39 | 5.52454 | 16.83254 | 12615 ft | 162 kts | 159° |
| 2026-04-18 14:40 | 5.51373 | 16.83542 | 12615 ft | 162 kts | 159° |
| 2026-04-18 14:40 | 5.50280 | 16.83834 | 12615 ft | 162 kts | 159° |
| 2026-04-18 14:40 | 5.49186 | 16.84126 | 12615 ft | 162 kts | 159° |
| 2026-04-18 14:40 | 5.48107 | 16.84413 | 12615 ft | 162 kts | 159° |
| 2026-04-18 14:41 | 5.47007 | 16.84707 | 12615 ft | 162 kts | 159° |
| 2026-04-18 14:41 | 5.45920 | 16.84997 | 12615 ft | 162 kts | 159° |
| 2026-04-18 14:41 | 5.44838 | 16.85285 | 12615 ft | 162 kts | 159° |
| 2026-04-18 14:41 | 5.43744 | 16.85577 | 12615 ft | 162 kts | 159° |
| 2026-04-18 14:42 | 5.42650 | 16.85869 | 12615 ft | 162 kts | 159° |
| 2026-04-18 14:42 | 5.41569 | 16.86157 | 12615 ft | 162 kts | 159° |
| 2026-04-18 14:42 | 5.40484 | 16.86447 | 12615 ft | 162 kts | 159° |
| 2026-04-18 14:42 | 5.39388 | 16.86739 | 12615 ft | 162 kts | 159° |
| 2026-04-18 14:43 | 5.38301 | 16.87029 | 12615 ft | 162 kts | 159° |
| 2026-04-18 14:43 | 5.37206 | 16.87320 | 12615 ft | 162 kts | 159° |
| 2026-04-18 14:43 | 5.36109 | 16.87613 | 12615 ft | 162 kts | 159° |
| 2026-04-18 14:43 | 5.35033 | 16.87900 | 12615 ft | 162 kts | 159° |
| 2026-04-18 14:44 | 5.33932 | 16.88193 | 12615 ft | 162 kts | 159° |
| 2026-04-18 14:44 | 5.32849 | 16.88482 | 12615 ft | 162 kts | 159° |
| 2026-04-18 14:44 | 5.31749 | 16.88776 | 12615 ft | 162 kts | 159° |
| 2026-04-18 14:44 | 5.30670 | 16.89063 | 12615 ft | 162 kts | 159° |
| 2026-04-18 14:45 | 5.29571 | 16.89356 | 12615 ft | 162 kts | 159° |
| 2026-04-18 14:45 | 5.28481 | 16.89647 | 12615 ft | 162 kts | 159° |
| 2026-04-18 14:45 | 5.27379 | 16.89941 | 12602 ft | 163 kts | 159° |
| 2026-04-18 14:45 | 5.26293 | 16.90230 | 12589 ft | 164 kts | 159° |
| 2026-04-18 14:46 | 5.25188 | 16.90524 | 12588 ft | 163 kts | 159° |
| 2026-04-18 14:46 | 5.24104 | 16.90813 | 12588 ft | 163 kts | 159° |
| 2026-04-18 14:46 | 5.23005 | 16.91106 | 12588 ft | 163 kts | 159° |
| 2026-04-18 14:46 | 5.21918 | 16.91396 | 12588 ft | 163 kts | 159° |
| 2026-04-18 14:47 | 5.20814 | 16.91690 | 12588 ft | 163 kts | 159° |
| 2026-04-18 14:47 | 5.19732 | 16.91978 | 12588 ft | 163 kts | 159° |
| 2026-04-18 14:47 | 5.18627 | 16.92273 | 12588 ft | 163 kts | 159° |
| 2026-04-18 14:47 | 5.17537 | 16.92563 | 12588 ft | 163 kts | 159° |
| 2026-04-18 14:48 | 5.16443 | 16.92855 | 12588 ft | 163 kts | 159° |
| 2026-04-18 14:48 | 5.15360 | 16.93143 | 12588 ft | 163 kts | 160° |
| 2026-04-18 14:48 | 5.14262 | 16.93436 | 12588 ft | 163 kts | 160° |
| 2026-04-18 14:48 | 5.13165 | 16.93728 | 12587 ft | 163 kts | 160° |
| 2026-04-18 14:49 | 5.12081 | 16.94017 | 12587 ft | 163 kts | 160° |
| 2026-04-18 14:49 | 5.10984 | 16.94309 | 12587 ft | 163 kts | 160° |
| 2026-04-18 14:49 | 5.09901 | 16.94598 | 12587 ft | 163 kts | 160° |
| 2026-04-18 14:49 | 5.08810 | 16.94890 | 12587 ft | 163 kts | 160° |
| 2026-04-18 14:50 | 5.07703 | 16.95184 | 12587 ft | 163 kts | 160° |
| 2026-04-18 14:50 | 5.06618 | 16.95474 | 12587 ft | 163 kts | 160° |
| 2026-04-18 14:50 | 5.05523 | 16.95765 | 12587 ft | 163 kts | 160° |
| 2026-04-18 14:50 | 5.04419 | 16.96059 | 12587 ft | 163 kts | 160° |
| 2026-04-18 14:51 | 5.03329 | 16.96350 | 12587 ft | 163 kts | 161° |
| 2026-04-18 14:51 | 5.02234 | 16.96642 | 12587 ft | 163 kts | 161° |
| 2026-04-18 14:51 | 5.01141 | 16.96933 | 12587 ft | 163 kts | 161° |
| 2026-04-18 14:51 | 5.00057 | 16.97222 | 12587 ft | 163 kts | 161° |
| 2026-04-18 14:52 | 4.98961 | 16.97513 | 12587 ft | 163 kts | 161° |
| 2026-04-18 14:52 | 4.97861 | 16.97806 | 12587 ft | 163 kts | 161° |
| 2026-04-18 14:52 | 4.96769 | 16.98097 | 12587 ft | 163 kts | 161° |
| 2026-04-18 14:52 | 4.95679 | 16.98388 | 12587 ft | 163 kts | 161° |
| 2026-04-18 14:53 | 4.94574 | 16.98682 | 12587 ft | 163 kts | 161° |
| 2026-04-18 14:53 | 4.93490 | 16.98970 | 12587 ft | 163 kts | 161° |
| 2026-04-18 14:53 | 4.92392 | 16.99262 | 12587 ft | 163 kts | 161° |
| 2026-04-18 14:53 | 4.91296 | 16.99554 | 12587 ft | 163 kts | 161° |
| 2026-04-18 14:54 | 4.90196 | 16.99847 | 12587 ft | 163 kts | 161° |
| 2026-04-18 14:54 | 4.89103 | 17.00138 | 12587 ft | 163 kts | 161° |
| 2026-04-18 14:54 | 4.88021 | 17.00426 | 12588 ft | 163 kts | 161° |
| 2026-04-18 14:54 | 4.86925 | 17.00718 | 12588 ft | 162 kts | 161° |
| 2026-04-18 14:55 | 4.85839 | 17.01007 | 12588 ft | 162 kts | 161° |
| 2026-04-18 14:55 | 4.84743 | 17.01299 | 12587 ft | 162 kts | 161° |
| 2026-04-18 14:55 | 4.83647 | 17.01591 | 12587 ft | 162 kts | 161° |
| 2026-04-18 14:55 | 4.82555 | 17.01881 | 12587 ft | 162 kts | 161° |
| 2026-04-18 14:56 | 4.81475 | 17.02169 | 12587 ft | 162 kts | 161° |
| 2026-04-18 14:56 | 4.80385 | 17.02459 | 12587 ft | 162 kts | 161° |
| 2026-04-18 14:56 | 4.79292 | 17.02750 | 12587 ft | 162 kts | 161° |
| 2026-04-18 14:56 | 4.78207 | 17.03039 | 12587 ft | 162 kts | 161° |
| 2026-04-18 14:57 | 4.77119 | 17.03329 | 12587 ft | 162 kts | 161° |
| 2026-04-18 14:57 | 4.76031 | 17.03618 | 12587 ft | 162 kts | 161° |
| 2026-04-18 14:57 | 4.74947 | 17.03907 | 12587 ft | 162 kts | 161° |
| 2026-04-18 14:57 | 4.73854 | 17.04198 | 12587 ft | 162 kts | 161° |
| 2026-04-18 14:58 | 4.72771 | 17.04486 | 12587 ft | 162 kts | 161° |
| 2026-04-18 14:58 | 4.71686 | 17.04775 | 12587 ft | 162 kts | 161° |
| 2026-04-18 14:58 | 4.70589 | 17.05067 | 12587 ft | 162 kts | 161° |
| 2026-04-18 14:58 | 4.69515 | 17.05353 | 12587 ft | 162 kts | 161° |
| 2026-04-18 14:59 | 4.68419 | 17.05645 | 12587 ft | 162 kts | 161° |
| 2026-04-18 14:59 | 4.67343 | 17.05931 | 12587 ft | 162 kts | 161° |
| 2026-04-18 14:59 | 4.66251 | 17.06221 | 12587 ft | 162 kts | 161° |
| 2026-04-18 14:59 | 4.65160 | 17.06512 | 12587 ft | 162 kts | 161° |
| 2026-04-18 15:00 | 4.64082 | 17.06799 | 12587 ft | 162 kts | 161° |
| 2026-04-18 15:00 | 4.62995 | 17.07088 | 12587 ft | 162 kts | 161° |
| 2026-04-18 15:00 | 4.61909 | 17.07377 | 12587 ft | 162 kts | 161° |
| 2026-04-18 15:00 | 4.60820 | 17.07666 | 12587 ft | 162 kts | 161° |
| 2026-04-18 15:01 | 4.59736 | 17.07954 | 12587 ft | 162 kts | 161° |
| 2026-04-18 15:01 | 4.58648 | 17.08244 | 12587 ft | 162 kts | 161° |
| 2026-04-18 15:01 | 4.57568 | 17.08530 | 12587 ft | 162 kts | 161° |
| 2026-04-18 15:01 | 4.56477 | 17.08820 | 12587 ft | 162 kts | 161° |
| 2026-04-18 15:02 | 4.55393 | 17.09108 | 12587 ft | 162 kts | 161° |
| 2026-04-18 15:02 | 4.54302 | 17.09398 | 12587 ft | 162 kts | 161° |
| 2026-04-18 15:02 | 4.53229 | 17.09683 | 12587 ft | 162 kts | 161° |
| 2026-04-18 15:02 | 4.52139 | 17.09973 | 12587 ft | 162 kts | 161° |
| 2026-04-18 15:03 | 4.51047 | 17.10263 | 12587 ft | 162 kts | 161° |
| 2026-04-18 15:03 | 4.49965 | 17.10550 | 12587 ft | 162 kts | 161° |
| 2026-04-18 15:03 | 4.48886 | 17.10837 | 12587 ft | 162 kts | 161° |
| 2026-04-18 15:03 | 4.47795 | 17.11127 | 12587 ft | 162 kts | 161° |
| 2026-04-18 15:04 | 4.46703 | 17.11417 | 12587 ft | 162 kts | 161° |
| 2026-04-18 15:04 | 4.45616 | 17.11705 | 12587 ft | 162 kts | 161° |
| 2026-04-18 15:04 | 4.44538 | 17.11992 | 12587 ft | 162 kts | 161° |
| 2026-04-18 15:04 | 4.43446 | 17.12282 | 12587 ft | 162 kts | 161° |
| 2026-04-18 15:05 | 4.42374 | 17.12567 | 12587 ft | 162 kts | 161° |
| 2026-04-18 15:05 | 4.41278 | 17.12858 | 12587 ft | 162 kts | 161° |
| 2026-04-18 15:05 | 4.40199 | 17.13144 | 12587 ft | 162 kts | 161° |
| 2026-04-18 15:05 | 4.39105 | 17.13435 | 12587 ft | 162 kts | 161° |
| 2026-04-18 15:06 | 4.38028 | 17.13721 | 12587 ft | 162 kts | 161° |
| 2026-04-18 15:06 | 4.36939 | 17.14010 | 12587 ft | 162 kts | 161° |
| 2026-04-18 15:06 | 4.35852 | 17.14298 | 12587 ft | 162 kts | 161° |
| 2026-04-18 15:06 | 4.34769 | 17.14586 | 12587 ft | 162 kts | 161° |
| 2026-04-18 15:07 | 4.33682 | 17.14875 | 12587 ft | 162 kts | 161° |
| 2026-04-18 15:07 | 4.32594 | 17.15164 | 12587 ft | 162 kts | 161° |
| 2026-04-18 15:07 | 4.31519 | 17.15449 | 12587 ft | 162 kts | 161° |
| 2026-04-18 15:07 | 4.30427 | 17.15739 | 12587 ft | 162 kts | 161° |
| 2026-04-18 15:08 | 4.29334 | 17.16030 | 12587 ft | 162 kts | 161° |
| 2026-04-18 15:08 | 4.28254 | 17.16317 | 12587 ft | 162 kts | 161° |
| 2026-04-18 15:08 | 4.27162 | 17.16607 | 12587 ft | 162 kts | 161° |
| 2026-04-18 15:08 | 4.26085 | 17.16894 | 12587 ft | 162 kts | 161° |
| 2026-04-18 15:09 | 4.25000 | 17.17182 | 12587 ft | 162 kts | 161° |
| 2026-04-18 15:09 | 4.23907 | 17.17473 | 12587 ft | 162 kts | 161° |
| 2026-04-18 15:09 | 4.22826 | 17.17760 | 12587 ft | 162 kts | 161° |
| 2026-04-18 15:09 | 4.21735 | 17.18050 | 12587 ft | 162 kts | 161° |
| 2026-04-18 15:10 | 4.20658 | 17.18336 | 12587 ft | 162 kts | 161° |
| 2026-04-18 15:10 | 4.19565 | 17.18627 | 12586 ft | 162 kts | 161° |
| 2026-04-18 15:10 | 4.18489 | 17.18913 | 12586 ft | 162 kts | 161° |
| 2026-04-18 15:10 | 4.17409 | 17.19200 | 12586 ft | 162 kts | 161° |
| 2026-04-18 15:11 | 4.16318 | 17.19490 | 12586 ft | 162 kts | 161° |
| 2026-04-18 15:11 | 4.15228 | 17.19780 | 12586 ft | 162 kts | 161° |
| 2026-04-18 15:11 | 4.14154 | 17.20066 | 12586 ft | 162 kts | 161° |
| 2026-04-18 15:11 | 4.13063 | 17.20355 | 12586 ft | 162 kts | 161° |
| 2026-04-18 15:12 | 4.11969 | 17.20646 | 12586 ft | 162 kts | 161° |
| 2026-04-18 15:12 | 4.10895 | 17.20932 | 12586 ft | 162 kts | 161° |
| 2026-04-18 15:12 | 4.09799 | 17.21223 | 12586 ft | 162 kts | 161° |
| 2026-04-18 15:12 | 4.08727 | 17.21508 | 12586 ft | 162 kts | 161° |
| 2026-04-18 15:13 | 4.07634 | 17.21798 | 12586 ft | 162 kts | 161° |
| 2026-04-18 15:13 | 4.06553 | 17.22086 | 12586 ft | 162 kts | 161° |
| 2026-04-18 15:13 | 4.05460 | 17.22376 | 12586 ft | 162 kts | 161° |
| 2026-04-18 15:13 | 4.04382 | 17.22663 | 12586 ft | 162 kts | 161° |
| 2026-04-18 15:14 | 4.03285 | 17.22954 | 12586 ft | 162 kts | 161° |
| 2026-04-18 15:14 | 4.02208 | 17.23240 | 12586 ft | 162 kts | 161° |
| 2026-04-18 15:14 | 4.01119 | 17.23530 | 12586 ft | 162 kts | 161° |
| 2026-04-18 15:15 | 3.98952 | 17.24105 | 12586 ft | 162 kts | 161° |
| 2026-04-18 15:15 | 3.97858 | 17.24396 | 12586 ft | 162 kts | 161° |
| 2026-04-18 15:15 | 3.96783 | 17.24682 | 12586 ft | 162 kts | 161° |
| 2026-04-18 15:15 | 3.95699 | 17.24970 | 12586 ft | 162 kts | 161° |
| 2026-04-18 15:16 | 3.94604 | 17.25261 | 12586 ft | 162 kts | 161° |
| 2026-04-18 15:16 | 3.93519 | 17.25549 | 12586 ft | 161 kts | 161° |
| 2026-04-18 15:16 | 3.92444 | 17.25835 | 12586 ft | 161 kts | 161° |
| 2026-04-18 15:16 | 3.91353 | 17.26125 | 12586 ft | 161 kts | 161° |
| 2026-04-18 15:17 | 3.90276 | 17.26411 | 12586 ft | 161 kts | 161° |
| 2026-04-18 15:17 | 3.89180 | 17.26702 | 12587 ft | 161 kts | 161° |
| 2026-04-18 15:17 | 3.88107 | 17.26987 | 12587 ft | 161 kts | 161° |
| 2026-04-18 15:17 | 3.87013 | 17.27278 | 12587 ft | 161 kts | 161° |
| 2026-04-18 15:18 | 3.85941 | 17.27562 | 12587 ft | 161 kts | 161° |
| 2026-04-18 15:18 | 3.84855 | 17.27851 | 12587 ft | 161 kts | 161° |
| 2026-04-18 15:18 | 3.83764 | 17.28140 | 12587 ft | 161 kts | 161° |
| 2026-04-18 15:18 | 3.82674 | 17.28430 | 12587 ft | 161 kts | 161° |
| 2026-04-18 15:19 | 3.81601 | 17.28715 | 12587 ft | 161 kts | 161° |
| 2026-04-18 15:19 | 3.80515 | 17.29003 | 12587 ft | 161 kts | 161° |
| 2026-04-18 15:19 | 3.79431 | 17.29291 | 12587 ft | 161 kts | 161° |
| 2026-04-18 15:19 | 3.78352 | 17.29578 | 12587 ft | 161 kts | 161° |
| 2026-04-18 15:20 | 3.77263 | 17.29867 | 12587 ft | 161 kts | 161° |
| 2026-04-18 15:20 | 3.76183 | 17.30154 | 12587 ft | 161 kts | 161° |
| 2026-04-18 15:20 | 3.75091 | 17.30444 | 12587 ft | 161 kts | 161° |
| 2026-04-18 15:20 | 3.74018 | 17.30729 | 12587 ft | 161 kts | 161° |
| 2026-04-18 15:21 | 3.72927 | 17.31018 | 12587 ft | 161 kts | 161° |
| 2026-04-18 15:21 | 3.71852 | 17.31304 | 12587 ft | 161 kts | 161° |
| 2026-04-18 15:21 | 3.70767 | 17.31592 | 12587 ft | 161 kts | 161° |
| 2026-04-18 15:21 | 3.69674 | 17.31882 | 12587 ft | 161 kts | 161° |
| 2026-04-18 15:22 | 3.68603 | 17.32166 | 12587 ft | 161 kts | 161° |
| 2026-04-18 15:22 | 3.67509 | 17.32457 | 12587 ft | 161 kts | 161° |
| 2026-04-18 15:22 | 3.66429 | 17.32743 | 12586 ft | 161 kts | 161° |
| 2026-04-18 15:22 | 3.65340 | 17.33032 | 12586 ft | 161 kts | 161° |
| 2026-04-18 15:23 | 3.64262 | 17.33318 | 12586 ft | 161 kts | 161° |
| 2026-04-18 15:23 | 3.63186 | 17.33604 | 12586 ft | 161 kts | 161° |
| 2026-04-18 15:23 | 3.62087 | 17.33895 | 12586 ft | 161 kts | 161° |
| 2026-04-18 15:23 | 3.61017 | 17.34179 | 12586 ft | 161 kts | 161° |
| 2026-04-18 15:24 | 3.59924 | 17.34469 | 12586 ft | 161 kts | 161° |
| 2026-04-18 15:24 | 3.58849 | 17.34754 | 12586 ft | 161 kts | 161° |
| 2026-04-18 15:24 | 3.57759 | 17.35043 | 12586 ft | 161 kts | 161° |
| 2026-04-18 15:24 | 3.56681 | 17.35329 | 12586 ft | 161 kts | 161° |
| 2026-04-18 15:25 | 3.55594 | 17.35618 | 12586 ft | 161 kts | 161° |
| 2026-04-18 15:25 | 3.54506 | 17.35906 | 12586 ft | 161 kts | 161° |
| 2026-04-18 15:25 | 3.53418 | 17.36195 | 12586 ft | 161 kts | 161° |
| 2026-04-18 15:25 | 3.52340 | 17.36481 | 12586 ft | 161 kts | 161° |
| 2026-04-18 15:26 | 3.51255 | 17.36769 | 12586 ft | 161 kts | 161° |
| 2026-04-18 15:26 | 3.50167 | 17.37057 | 12586 ft | 161 kts | 161° |
| 2026-04-18 15:26 | 3.49088 | 17.37343 | 12586 ft | 161 kts | 161° |
| 2026-04-18 15:26 | 3.48002 | 17.37631 | 12586 ft | 161 kts | 161° |
| 2026-04-18 15:27 | 3.46917 | 17.37919 | 12586 ft | 161 kts | 161° |
| 2026-04-18 15:27 | 3.45844 | 17.38204 | 12586 ft | 161 kts | 161° |
| 2026-04-18 15:27 | 3.44752 | 17.38493 | 12586 ft | 161 kts | 161° |
| 2026-04-18 15:27 | 3.43678 | 17.38778 | 12586 ft | 161 kts | 161° |
| 2026-04-18 15:28 | 3.42589 | 17.39067 | 12586 ft | 161 kts | 161° |
| 2026-04-18 15:28 | 3.41511 | 17.39353 | 12586 ft | 161 kts | 161° |
| 2026-04-18 15:28 | 3.40421 | 17.39642 | 12586 ft | 161 kts | 161° |
| 2026-04-18 15:28 | 3.39335 | 17.39930 | 12586 ft | 161 kts | 161° |
| 2026-04-18 15:29 | 3.38248 | 17.40218 | 12586 ft | 161 kts | 161° |
| 2026-04-18 15:29 | 3.37174 | 17.40503 | 12586 ft | 161 kts | 161° |
| 2026-04-18 15:29 | 3.36085 | 17.40792 | 12586 ft | 161 kts | 161° |
| 2026-04-18 15:29 | 3.35009 | 17.41077 | 12586 ft | 161 kts | 161° |
| 2026-04-18 15:30 | 3.33919 | 17.41366 | 12586 ft | 161 kts | 161° |
| 2026-04-18 15:30 | 3.32829 | 17.41655 | 12586 ft | 161 kts | 161° |
| 2026-04-18 15:30 | 3.31758 | 17.41939 | 12586 ft | 161 kts | 161° |
| 2026-04-18 15:30 | 3.30669 | 17.42228 | 12586 ft | 161 kts | 161° |
| 2026-04-18 15:31 | 3.29578 | 17.42517 | 12586 ft | 161 kts | 161° |
| 2026-04-18 15:31 | 3.28497 | 17.42804 | 12586 ft | 161 kts | 161° |
| 2026-04-18 15:31 | 3.27418 | 17.43090 | 12586 ft | 161 kts | 161° |
| 2026-04-18 15:31 | 3.26342 | 17.43375 | 12586 ft | 161 kts | 161° |
| 2026-04-18 15:32 | 3.25254 | 17.43663 | 12586 ft | 161 kts | 161° |
| 2026-04-18 15:32 | 3.24165 | 17.43952 | 12586 ft | 161 kts | 161° |
| 2026-04-18 15:32 | 3.23090 | 17.44237 | 12586 ft | 161 kts | 161° |
| 2026-04-18 15:32 | 3.22003 | 17.44525 | 12586 ft | 161 kts | 161° |
| 2026-04-18 15:33 | 3.20912 | 17.44814 | 12586 ft | 161 kts | 161° |
| 2026-04-18 15:33 | 3.19841 | 17.45098 | 12586 ft | 161 kts | 161° |
| 2026-04-18 15:33 | 3.18756 | 17.45386 | 12586 ft | 161 kts | 161° |
| 2026-04-18 15:33 | 3.17670 | 17.45674 | 12586 ft | 161 kts | 161° |
| 2026-04-18 15:34 | 3.16588 | 17.45960 | 12586 ft | 161 kts | 161° |
| 2026-04-18 15:34 | 3.15498 | 17.46249 | 12586 ft | 161 kts | 161° |
| 2026-04-18 15:34 | 3.14424 | 17.46534 | 12586 ft | 161 kts | 161° |
| 2026-04-18 15:34 | 3.13334 | 17.46823 | 12586 ft | 161 kts | 161° |
| 2026-04-18 15:35 | 3.12248 | 17.47111 | 12586 ft | 161 kts | 161° |
| 2026-04-18 15:35 | 3.11163 | 17.47398 | 12586 ft | 161 kts | 161° |
| 2026-04-18 15:35 | 3.10083 | 17.47685 | 12586 ft | 161 kts | 161° |
| 2026-04-18 15:35 | 3.09001 | 17.47971 | 12586 ft | 161 kts | 161° |
| 2026-04-18 15:36 | 3.07922 | 17.48257 | 12586 ft | 161 kts | 161° |
| 2026-04-18 15:36 | 3.06833 | 17.48546 | 12586 ft | 161 kts | 161° |
| 2026-04-18 15:36 | 3.05758 | 17.48830 | 12586 ft | 161 kts | 161° |
| 2026-04-18 15:36 | 3.04668 | 17.49120 | 12585 ft | 161 kts | 161° |
| 2026-04-18 15:37 | 3.03578 | 17.49408 | 12585 ft | 161 kts | 161° |
| 2026-04-18 15:37 | 3.02503 | 17.49693 | 12585 ft | 161 kts | 161° |
| 2026-04-18 15:37 | 3.01415 | 17.49982 | 12585 ft | 161 kts | 161° |
| 2026-04-18 15:37 | 3.00338 | 17.50267 | 12586 ft | 162 kts | 161° |
| 2026-04-18 15:38 | 2.99246 | 17.50556 | 12586 ft | 162 kts | 162° |
| 2026-04-18 15:38 | 2.98157 | 17.50845 | 12586 ft | 162 kts | 162° |
| 2026-04-18 15:38 | 2.97059 | 17.51136 | 12586 ft | 162 kts | 162° |
| 2026-04-18 15:38 | 2.95971 | 17.51424 | 12586 ft | 163 kts | 162° |
| 2026-04-18 15:39 | 2.94871 | 17.51716 | 12586 ft | 163 kts | 162° |
| 2026-04-18 15:39 | 2.93786 | 17.52003 | 12586 ft | 163 kts | 162° |
| 2026-04-18 15:39 | 2.92682 | 17.52296 | 12586 ft | 163 kts | 162° |
| 2026-04-18 15:39 | 2.91586 | 17.52586 | 12586 ft | 164 kts | 162° |
| 2026-04-18 15:40 | 2.90487 | 17.52877 | 12586 ft | 164 kts | 162° |
| 2026-04-18 15:40 | 2.89371 | 17.53172 | 12586 ft | 165 kts | 162° |
| 2026-04-18 15:40 | 2.88276 | 17.53462 | 12586 ft | 165 kts | 162° |
| 2026-04-18 15:40 | 2.87162 | 17.53758 | 12586 ft | 166 kts | 162° |
| 2026-04-18 15:41 | 2.86038 | 17.54055 | 12586 ft | 166 kts | 162° |
| 2026-04-18 15:41 | 2.84938 | 17.54346 | 12586 ft | 166 kts | 162° |
| 2026-04-18 15:41 | 2.83810 | 17.54645 | 12586 ft | 166 kts | 162° |
| 2026-04-18 15:41 | 2.82698 | 17.54939 | 12586 ft | 166 kts | 162° |
| 2026-04-18 15:42 | 2.81588 | 17.55233 | 12586 ft | 166 kts | 162° |
| 2026-04-18 15:42 | 2.80467 | 17.55530 | 12586 ft | 166 kts | 162° |
| 2026-04-18 15:42 | 2.79357 | 17.55824 | 12586 ft | 166 kts | 162° |
| 2026-04-18 15:42 | 2.78237 | 17.56121 | 12586 ft | 166 kts | 162° |
| 2026-04-18 15:43 | 2.77122 | 17.56416 | 12586 ft | 166 kts | 162° |
| 2026-04-18 15:43 | 2.76004 | 17.56712 | 12586 ft | 166 kts | 162° |
| 2026-04-18 15:43 | 2.74895 | 17.57006 | 12586 ft | 166 kts | 162° |
| 2026-04-18 15:43 | 2.73779 | 17.57301 | 12586 ft | 166 kts | 162° |
| 2026-04-18 15:44 | 2.72657 | 17.57598 | 12586 ft | 166 kts | 162° |
| 2026-04-18 15:44 | 2.71545 | 17.57893 | 12586 ft | 166 kts | 162° |
| 2026-04-18 15:44 | 2.70420 | 17.58191 | 12586 ft | 166 kts | 162° |
| 2026-04-18 15:44 | 2.69306 | 17.58486 | 12586 ft | 166 kts | 162° |
| 2026-04-18 15:45 | 2.68198 | 17.58779 | 12586 ft | 166 kts | 162° |
| 2026-04-18 15:45 | 2.67069 | 17.59078 | 12586 ft | 166 kts | 162° |
| 2026-04-18 15:45 | 2.65968 | 17.59370 | 12586 ft | 166 kts | 162° |
| 2026-04-18 15:45 | 2.64840 | 17.59669 | 12586 ft | 166 kts | 162° |
| 2026-04-18 15:46 | 2.63727 | 17.59963 | 12586 ft | 166 kts | 162° |
| 2026-04-18 15:46 | 2.62605 | 17.60260 | 12586 ft | 166 kts | 162° |
| 2026-04-18 15:46 | 2.61499 | 17.60553 | 12586 ft | 166 kts | 162° |
| 2026-04-18 15:46 | 2.60383 | 17.60849 | 12586 ft | 166 kts | 162° |
| 2026-04-18 15:47 | 2.59270 | 17.61143 | 12583 ft | 166 kts | 162° |
| 2026-04-18 15:47 | 2.58145 | 17.61441 | 12562 ft | 167 kts | 162° |
| 2026-04-18 15:47 | 2.57017 | 17.61740 | 12559 ft | 167 kts | 162° |
| 2026-04-18 15:47 | 2.55892 | 17.62037 | 12559 ft | 167 kts | 162° |
| 2026-04-18 15:48 | 2.54786 | 17.62330 | 12559 ft | 166 kts | 162° |
| 2026-04-18 15:48 | 2.53673 | 17.62625 | 12559 ft | 166 kts | 162° |
| 2026-04-18 15:48 | 2.52547 | 17.62923 | 12559 ft | 166 kts | 162° |
| 2026-04-18 15:48 | 2.51422 | 17.63221 | 12559 ft | 166 kts | 162° |
| 2026-04-18 15:49 | 2.50315 | 17.63514 | 12559 ft | 166 kts | 162° |
| 2026-04-18 15:49 | 2.49192 | 17.63811 | 12559 ft | 166 kts | 162° |
| 2026-04-18 15:49 | 2.48081 | 17.64105 | 12559 ft | 166 kts | 162° |
| 2026-04-18 15:49 | 2.46974 | 17.64398 | 12559 ft | 166 kts | 162° |
| 2026-04-18 15:50 | 2.45848 | 17.64696 | 12559 ft | 166 kts | 162° |
| 2026-04-18 15:50 | 2.44740 | 17.64990 | 12559 ft | 166 kts | 162° |
| 2026-04-18 15:50 | 2.43619 | 17.65286 | 12561 ft | 166 kts | 162° |
| 2026-04-18 15:50 | 2.42509 | 17.65580 | 12561 ft | 166 kts | 162° |
| 2026-04-18 15:51 | 2.41385 | 17.65878 | 12561 ft | 166 kts | 162° |
| 2026-04-18 15:51 | 2.40277 | 17.66171 | 12561 ft | 166 kts | 162° |
| 2026-04-18 15:51 | 2.39152 | 17.66469 | 12561 ft | 166 kts | 162° |
| 2026-04-18 15:51 | 2.38042 | 17.66763 | 12561 ft | 166 kts | 162° |
| 2026-04-18 15:52 | 2.36918 | 17.67060 | 12561 ft | 166 kts | 162° |
| 2026-04-18 15:52 | 2.35803 | 17.67354 | 12561 ft | 166 kts | 162° |
| 2026-04-18 15:52 | 2.34679 | 17.67651 | 12561 ft | 166 kts | 162° |
| 2026-04-18 15:52 | 2.33563 | 17.67945 | 12561 ft | 166 kts | 162° |
| 2026-04-18 15:53 | 2.32436 | 17.68242 | 12561 ft | 166 kts | 162° |
| 2026-04-18 15:53 | 2.31320 | 17.68537 | 12561 ft | 166 kts | 162° |
| 2026-04-18 15:53 | 2.30205 | 17.68831 | 12561 ft | 166 kts | 162° |
| 2026-04-18 15:53 | 2.29081 | 17.69128 | 12561 ft | 166 kts | 162° |
| 2026-04-18 15:54 | 2.27967 | 17.69421 | 12561 ft | 166 kts | 162° |
| 2026-04-18 15:54 | 2.26839 | 17.69719 | 12561 ft | 166 kts | 162° |
| 2026-04-18 15:54 | 2.25723 | 17.70013 | 12561 ft | 166 kts | 162° |
| 2026-04-18 15:54 | 2.24608 | 17.70307 | 12561 ft | 166 kts | 162° |
| 2026-04-18 15:55 | 2.23494 | 17.70601 | 12561 ft | 167 kts | 162° |
| 2026-04-18 15:55 | 2.22368 | 17.70898 | 12561 ft | 167 kts | 162° |
| 2026-04-18 15:55 | 2.21255 | 17.71192 | 12561 ft | 167 kts | 162° |
| 2026-04-18 15:55 | 2.20128 | 17.71491 | 12561 ft | 167 kts | 162° |
| 2026-04-18 15:56 | 2.19012 | 17.71786 | 12561 ft | 167 kts | 162° |
| 2026-04-18 15:56 | 2.18304 | 17.71973 | 12561 ft | 167 kts | 162° |
| 2026-04-18 15:56 | 2.17449 | 17.72199 | 12561 ft | 167 kts | 162° |
| 2026-04-18 15:56 | 2.16338 | 17.72494 | 12561 ft | 167 kts | 162° |
| 2026-04-18 15:57 | 2.15218 | 17.72790 | 12561 ft | 167 kts | 162° |
| 2026-04-18 15:57 | 2.14095 | 17.73087 | 12561 ft | 167 kts | 162° |
| 2026-04-18 15:57 | 2.12977 | 17.73383 | 12561 ft | 167 kts | 162° |
| 2026-04-18 15:57 | 2.11853 | 17.73680 | 12561 ft | 167 kts | 162° |
| 2026-04-18 15:58 | 2.10740 | 17.73975 | 12561 ft | 167 kts | 162° |
| 2026-04-18 15:58 | 2.09613 | 17.74273 | 12561 ft | 167 kts | 162° |
| 2026-04-18 15:58 | 2.08495 | 17.74568 | 12561 ft | 167 kts | 162° |
| 2026-04-18 15:58 | 2.07386 | 17.74862 | 12561 ft | 167 kts | 162° |
| 2026-04-18 15:59 | 2.06256 | 17.75161 | 12561 ft | 167 kts | 162° |
| 2026-04-18 15:59 | 2.05134 | 17.75458 | 12561 ft | 167 kts | 162° |
| 2026-04-18 15:59 | 2.04027 | 17.75750 | 12561 ft | 167 kts | 162° |
| 2026-04-18 15:59 | 2.02899 | 17.76049 | 12561 ft | 167 kts | 162° |
| 2026-04-18 16:00 | 2.01788 | 17.76343 | 12561 ft | 167 kts | 162° |
| 2026-04-18 16:00 | 2.00669 | 17.76639 | 12561 ft | 167 kts | 162° |
| 2026-04-18 16:00 | 1.99547 | 17.76936 | 12561 ft | 167 kts | 162° |
| 2026-04-18 16:00 | 1.98421 | 17.77234 | 12561 ft | 167 kts | 162° |
| 2026-04-18 16:01 | 1.97306 | 17.77529 | 12561 ft | 167 kts | 162° |
| 2026-04-18 16:01 | 1.96191 | 17.77823 | 12561 ft | 167 kts | 162° |
| 2026-04-18 16:01 | 1.95071 | 17.78120 | 12561 ft | 167 kts | 162° |
| 2026-04-18 16:01 | 1.93947 | 17.78417 | 12561 ft | 167 kts | 162° |
| 2026-04-18 16:02 | 1.92831 | 17.78712 | 12561 ft | 167 kts | 162° |
| 2026-04-18 16:02 | 1.91718 | 17.79007 | 12561 ft | 167 kts | 162° |
| 2026-04-18 16:02 | 1.90625 | 17.79294 | 12774 ft | 154 kts | 162° |
| 2026-04-18 16:02 | 1.89596 | 17.79566 | 12872 ft | 154 kts | 162° |
| 2026-04-18 16:03 | 1.88549 | 17.79845 | 12885 ft | 158 kts | 162° |
| 2026-04-18 16:03 | 1.87466 | 17.80132 | 12886 ft | 162 kts | 162° |
| 2026-04-18 16:03 | 1.86372 | 17.80422 | 12886 ft | 164 kts | 162° |
| 2026-04-18 16:03 | 1.85270 | 17.80713 | 12885 ft | 165 kts | 162° |
| 2026-04-18 16:04 | 1.84153 | 17.81009 | 12885 ft | 166 kts | 162° |
| 2026-04-18 16:04 | 1.83028 | 17.81306 | 12885 ft | 166 kts | 162° |
| 2026-04-18 16:04 | 1.81919 | 17.81599 | 12885 ft | 167 kts | 162° |
| 2026-04-18 16:04 | 1.80804 | 17.81894 | 12885 ft | 167 kts | 162° |
| 2026-04-18 16:05 | 1.79676 | 17.82192 | 12885 ft | 167 kts | 162° |
| 2026-04-18 16:05 | 1.78552 | 17.82490 | 12885 ft | 167 kts | 162° |
| 2026-04-18 16:05 | 1.77435 | 17.82786 | 12885 ft | 167 kts | 162° |
| 2026-04-18 16:05 | 1.76319 | 17.83081 | 12885 ft | 167 kts | 162° |
| 2026-04-18 16:06 | 1.75188 | 17.83380 | 12885 ft | 167 kts | 162° |
| 2026-04-18 16:06 | 1.74067 | 17.83677 | 12885 ft | 167 kts | 162° |
| 2026-04-18 16:06 | 1.72942 | 17.83975 | 12885 ft | 167 kts | 162° |
| 2026-04-18 16:06 | 1.71827 | 17.84271 | 12885 ft | 167 kts | 162° |
| 2026-04-18 16:07 | 1.70712 | 17.84566 | 12885 ft | 167 kts | 162° |
| 2026-04-18 16:07 | 1.69578 | 17.84866 | 12885 ft | 167 kts | 162° |
| 2026-04-18 16:07 | 1.68467 | 17.85160 | 12885 ft | 167 kts | 162° |
| 2026-04-18 16:07 | 1.67349 | 17.85456 | 12885 ft | 167 kts | 162° |
| 2026-04-18 16:08 | 1.66224 | 17.85754 | 12885 ft | 167 kts | 162° |
| 2026-04-18 16:08 | 1.65099 | 17.86052 | 12885 ft | 167 kts | 162° |
| 2026-04-18 16:08 | 1.63974 | 17.86350 | 12885 ft | 167 kts | 162° |
| 2026-04-18 16:08 | 1.62846 | 17.86649 | 12885 ft | 167 kts | 162° |
| 2026-04-18 16:09 | 1.61731 | 17.86944 | 12885 ft | 167 kts | 162° |
| 2026-04-18 16:09 | 1.60606 | 17.87242 | 12885 ft | 167 kts | 162° |
| 2026-04-18 16:09 | 1.59493 | 17.87536 | 12885 ft | 167 kts | 162° |
| 2026-04-18 16:09 | 1.58358 | 17.87837 | 12885 ft | 167 kts | 162° |
| 2026-04-18 16:10 | 1.57239 | 17.88133 | 12885 ft | 167 kts | 162° |
| 2026-04-18 16:10 | 1.56126 | 17.88428 | 12885 ft | 167 kts | 162° |
| 2026-04-18 16:10 | 1.54992 | 17.88728 | 12885 ft | 167 kts | 162° |
| 2026-04-18 16:10 | 1.53881 | 17.89022 | 12885 ft | 167 kts | 162° |
| 2026-04-18 16:11 | 1.52752 | 17.89321 | 12885 ft | 167 kts | 162° |
| 2026-04-18 16:11 | 1.51624 | 17.89619 | 12885 ft | 167 kts | 162° |
| 2026-04-18 16:11 | 1.50516 | 17.89913 | 12885 ft | 167 kts | 162° |
| 2026-04-18 16:11 | 1.49393 | 17.90210 | 12885 ft | 167 kts | 162° |
| 2026-04-18 16:12 | 1.48268 | 17.90508 | 12885 ft | 167 kts | 162° |
| 2026-04-18 16:12 | 1.47143 | 17.90806 | 12885 ft | 167 kts | 162° |
| 2026-04-18 16:12 | 1.46015 | 17.91104 | 12885 ft | 167 kts | 162° |
| 2026-04-18 16:12 | 1.44900 | 17.91399 | 12885 ft | 167 kts | 162° |
| 2026-04-18 16:13 | 1.43777 | 17.91697 | 12885 ft | 167 kts | 162° |
| 2026-04-18 16:13 | 1.42776 | 17.91962 | 12885 ft | 167 kts | 162° |
| 2026-04-18 16:13 | 1.41638 | 17.92263 | 12885 ft | 167 kts | 162° |
| 2026-04-18 16:13 | 1.40509 | 17.92562 | 12885 ft | 167 kts | 162° |
| 2026-04-18 16:14 | 1.39390 | 17.92858 | 12885 ft | 167 kts | 162° |
| 2026-04-18 16:14 | 1.38270 | 17.93155 | 12885 ft | 167 kts | 162° |
| 2026-04-18 16:14 | 1.37128 | 17.93457 | 12885 ft | 167 kts | 162° |
| 2026-04-18 16:14 | 1.36008 | 17.93753 | 12885 ft | 167 kts | 162° |
| 2026-04-18 16:15 | 1.33756 | 17.94349 | 12885 ft | 167 kts | 162° |
| 2026-04-18 16:15 | 1.32629 | 17.94647 | 12885 ft | 167 kts | 162° |
| 2026-04-18 16:15 | 1.31510 | 17.94943 | 12885 ft | 167 kts | 162° |
| 2026-04-18 16:16 | 1.30379 | 17.95242 | 12885 ft | 167 kts | 162° |
| 2026-04-18 16:16 | 1.29251 | 17.95540 | 12885 ft | 167 kts | 162° |
| 2026-04-18 16:16 | 1.28132 | 17.95836 | 12885 ft | 167 kts | 162° |
| 2026-04-18 16:16 | 1.27003 | 17.96134 | 12885 ft | 167 kts | 162° |
| 2026-04-18 16:17 | 1.25882 | 17.96431 | 12885 ft | 167 kts | 162° |
| 2026-04-18 16:17 | 1.24753 | 17.96729 | 12885 ft | 167 kts | 162° |
| 2026-04-18 16:17 | 1.23618 | 17.97029 | 12885 ft | 167 kts | 162° |
| 2026-04-18 16:17 | 1.22479 | 17.97331 | 12698 ft | 178 kts | 162° |
| 2026-04-18 16:18 | 1.21259 | 17.97654 | 12576 ft | 179 kts | 162° |
| 2026-04-18 16:18 | 1.20071 | 17.97967 | 12561 ft | 174 kts | 162° |
| 2026-04-18 16:18 | 1.18911 | 17.98273 | 12559 ft | 171 kts | 162° |
| 2026-04-18 16:18 | 1.17775 | 17.98573 | 12560 ft | 170 kts | 162° |
| 2026-04-18 16:19 | 1.16638 | 17.98874 | 12560 ft | 168 kts | 162° |
| 2026-04-18 16:19 | 1.15503 | 17.99174 | 12560 ft | 168 kts | 162° |
| 2026-04-18 16:19 | 1.14376 | 17.99472 | 12560 ft | 167 kts | 162° |
| 2026-04-18 16:19 | 1.13252 | 17.99769 | 12560 ft | 167 kts | 162° |
| 2026-04-18 16:20 | 1.12134 | 18.00065 | 12560 ft | 167 kts | 162° |
| 2026-04-18 16:20 | 1.11004 | 18.00364 | 12560 ft | 167 kts | 162° |
| 2026-04-18 16:20 | 1.09882 | 18.00660 | 12560 ft | 167 kts | 162° |
| 2026-04-18 16:20 | 1.08770 | 18.00954 | 12560 ft | 166 kts | 162° |
| 2026-04-18 16:21 | 1.07650 | 18.01250 | 12560 ft | 166 kts | 162° |
| 2026-04-18 16:21 | 1.06536 | 18.01545 | 12560 ft | 166 kts | 162° |
| 2026-04-18 16:21 | 1.05422 | 18.01839 | 12560 ft | 166 kts | 162° |
| 2026-04-18 16:21 | 1.04306 | 18.02134 | 12560 ft | 165 kts | 162° |
| 2026-04-18 16:22 | 1.03190 | 18.02429 | 12560 ft | 165 kts | 162° |
| 2026-04-18 16:22 | 1.02089 | 18.02720 | 12560 ft | 165 kts | 162° |
| 2026-04-18 16:22 | 1.00980 | 18.03013 | 12560 ft | 165 kts | 162° |
| 2026-04-18 16:22 | 0.99875 | 18.03306 | 12560 ft | 164 kts | 162° |
| 2026-04-18 16:23 | 0.98768 | 18.03598 | 12560 ft | 164 kts | 162° |
| 2026-04-18 16:23 | 0.97663 | 18.03890 | 12560 ft | 164 kts | 162° |
| 2026-04-18 16:23 | 0.95472 | 18.04470 | 12560 ft | 163 kts | 162° |
| 2026-04-18 16:24 | 0.94381 | 18.04758 | 12560 ft | 163 kts | 162° |
| 2026-04-18 16:24 | 0.93287 | 18.05047 | 12560 ft | 163 kts | 162° |
| 2026-04-18 16:24 | 0.92183 | 18.05339 | 12560 ft | 163 kts | 162° |
| 2026-04-18 16:24 | 0.91093 | 18.05627 | 12560 ft | 163 kts | 162° |
| 2026-04-18 16:25 | 0.90007 | 18.05914 | 12560 ft | 163 kts | 162° |
| 2026-04-18 16:25 | 0.88901 | 18.06207 | 12560 ft | 163 kts | 162° |
| 2026-04-18 16:25 | 0.87813 | 18.06494 | 12560 ft | 163 kts | 162° |
| 2026-04-18 16:25 | 0.86713 | 18.06785 | 12560 ft | 163 kts | 162° |
| 2026-04-18 16:26 | 0.85620 | 18.07074 | 12560 ft | 163 kts | 162° |
| 2026-04-18 16:26 | 0.84526 | 18.07363 | 12560 ft | 163 kts | 162° |
| 2026-04-18 16:26 | 0.83444 | 18.07649 | 12560 ft | 163 kts | 162° |
| 2026-04-18 16:26 | 0.82353 | 18.07937 | 12560 ft | 163 kts | 162° |
| 2026-04-18 16:27 | 0.81247 | 18.08229 | 12560 ft | 163 kts | 162° |
| 2026-04-18 16:27 | 0.80153 | 18.08519 | 12560 ft | 163 kts | 162° |
| 2026-04-18 16:27 | 0.79070 | 18.08805 | 12560 ft | 163 kts | 162° |
| 2026-04-18 16:27 | 0.77975 | 18.09094 | 12560 ft | 163 kts | 162° |
| 2026-04-18 16:28 | 0.76880 | 18.09384 | 12560 ft | 163 kts | 162° |
| 2026-04-18 16:28 | 0.75790 | 18.09672 | 12560 ft | 163 kts | 162° |
| 2026-04-18 16:28 | 0.74683 | 18.09964 | 12560 ft | 163 kts | 162° |
| 2026-04-18 16:28 | 0.73589 | 18.10253 | 12560 ft | 163 kts | 162° |
| 2026-04-18 16:29 | 0.72490 | 18.10544 | 12560 ft | 163 kts | 162° |
| 2026-04-18 16:29 | 0.71398 | 18.10833 | 12560 ft | 163 kts | 162° |
| 2026-04-18 16:29 | 0.70294 | 18.11124 | 12560 ft | 163 kts | 162° |
| 2026-04-18 16:29 | 0.69198 | 18.11414 | 12560 ft | 163 kts | 162° |
| 2026-04-18 16:30 | 0.68107 | 18.11702 | 12560 ft | 163 kts | 162° |
| 2026-04-18 16:30 | 0.67012 | 18.11992 | 12560 ft | 163 kts | 162° |
| 2026-04-18 16:30 | 0.65909 | 18.12283 | 12560 ft | 163 kts | 162° |
| 2026-04-18 16:30 | 0.64813 | 18.12573 | 12560 ft | 163 kts | 162° |
| 2026-04-18 16:31 | 0.63725 | 18.12860 | 12560 ft | 163 kts | 162° |
| 2026-04-18 16:31 | 0.62626 | 18.13151 | 12560 ft | 163 kts | 162° |
| 2026-04-18 16:31 | 0.61535 | 18.13439 | 12560 ft | 163 kts | 162° |
| 2026-04-18 16:31 | 0.60474 | 18.13803 | 12561 ft | 160 kts | 142° |
| 2026-04-18 16:32 | 0.59909 | 18.14730 | 12571 ft | 158 kts | 105° |
| 2026-04-18 16:32 | 0.59708 | 18.15815 | 12563 ft | 159 kts | 97° |
| 2026-04-18 16:32 | 0.59602 | 18.16906 | 12561 ft | 159 kts | 95° |
| 2026-04-18 16:32 | 0.59542 | 18.18015 | 12560 ft | 159 kts | 93° |
| 2026-04-18 16:33 | 0.59510 | 18.19123 | 12560 ft | 159 kts | 92° |
| 2026-04-18 16:33 | 0.59495 | 18.20245 | 12560 ft | 159 kts | 91° |
| 2026-04-18 16:33 | 0.59492 | 18.21351 | 12560 ft | 159 kts | 91° |
| 2026-04-18 16:33 | 0.59496 | 18.22468 | 12560 ft | 159 kts | 90° |
| 2026-04-18 16:34 | 0.59505 | 18.23580 | 12560 ft | 159 kts | 90° |
| 2026-04-18 16:34 | 0.59516 | 18.24676 | 12560 ft | 159 kts | 90° |
| 2026-04-18 16:34 | 0.59529 | 18.25798 | 12560 ft | 159 kts | 90° |
| 2026-04-18 16:34 | 0.59544 | 18.26901 | 12560 ft | 159 kts | 90° |
| 2026-04-18 16:35 | 0.59559 | 18.28012 | 12560 ft | 159 kts | 90° |
| 2026-04-18 16:35 | 0.59574 | 18.29119 | 12560 ft | 159 kts | 90° |
| 2026-04-18 16:35 | 0.59590 | 18.30243 | 12560 ft | 159 kts | 90° |
| 2026-04-18 16:35 | 0.59605 | 18.31349 | 12560 ft | 159 kts | 90° |
| 2026-04-18 16:36 | 0.59621 | 18.32465 | 12560 ft | 159 kts | 90° |
| 2026-04-18 16:36 | 0.59637 | 18.33582 | 12560 ft | 159 kts | 90° |
| 2026-04-18 16:36 | 0.59653 | 18.34692 | 12559 ft | 159 kts | 90° |
| 2026-04-18 16:36 | 0.59669 | 18.35810 | 12559 ft | 159 kts | 90° |
| 2026-04-18 16:37 | 0.59686 | 18.36927 | 12559 ft | 159 kts | 90° |
| 2026-04-18 16:37 | 0.59701 | 18.38030 | 12559 ft | 159 kts | 90° |
| 2026-04-18 16:37 | 0.59718 | 18.39139 | 12559 ft | 159 kts | 90° |
| 2026-04-18 16:37 | 0.59734 | 18.40257 | 12559 ft | 159 kts | 90° |
| 2026-04-18 16:38 | 0.59739 | 18.41368 | 12556 ft | 159 kts | 96° |
| 2026-04-18 16:38 | 0.59213 | 18.42296 | 12558 ft | 159 kts | 142° |
| 2026-04-18 16:38 | 0.58147 | 18.42567 | 12558 ft | 165 kts | 185° |
| 2026-04-18 16:38 | 0.57094 | 18.42081 | 12562 ft | 169 kts | 208° |
| 2026-04-18 16:39 | 0.56055 | 18.41498 | 12561 ft | 169 kts | 202° |
| 2026-04-18 16:39 | 0.54983 | 18.41027 | 12560 ft | 168 kts | 198° |
| 2026-04-18 16:39 | 0.53882 | 18.40637 | 12560 ft | 167 kts | 194° |
| 2026-04-18 16:39 | 0.52757 | 18.40297 | 12560 ft | 167 kts | 192° |
| 2026-04-18 16:40 | 0.51628 | 18.39991 | 12560 ft | 167 kts | 191° |
| 2026-04-18 16:40 | 0.50505 | 18.39707 | 12559 ft | 167 kts | 190° |
| 2026-04-18 16:40 | 0.49377 | 18.39430 | 12559 ft | 167 kts | 190° |
| 2026-04-18 16:40 | 0.48238 | 18.39157 | 12559 ft | 167 kts | 189° |
| 2026-04-18 16:41 | 0.45992 | 18.38641 | 12559 ft | 167 kts | 189° |
| 2026-04-18 16:41 | 0.44829 | 18.38381 | 12559 ft | 167 kts | 189° |
| 2026-04-18 16:41 | 0.43691 | 18.38127 | 12559 ft | 167 kts | 189° |
| 2026-04-18 16:42 | 0.42561 | 18.37875 | 12559 ft | 167 kts | 189° |
| 2026-04-18 16:42 | 0.41417 | 18.37620 | 12559 ft | 167 kts | 189° |
| 2026-04-18 16:42 | 0.40291 | 18.37369 | 12559 ft | 167 kts | 189° |
| 2026-04-18 16:42 | 0.39183 | 18.37121 | 12559 ft | 167 kts | 189° |
| 2026-04-18 16:43 | 0.38046 | 18.36868 | 12559 ft | 167 kts | 189° |
| 2026-04-18 16:43 | 0.36909 | 18.36614 | 12559 ft | 167 kts | 189° |
| 2026-04-18 16:43 | 0.35774 | 18.36361 | 12559 ft | 167 kts | 189° |
| 2026-04-18 16:43 | 0.34640 | 18.36108 | 12559 ft | 167 kts | 189° |
| 2026-04-18 16:44 | 0.33504 | 18.35855 | 12559 ft | 167 kts | 189° |
| 2026-04-18 16:44 | 0.32375 | 18.35603 | 12559 ft | 167 kts | 189° |
| 2026-04-18 16:44 | 0.31232 | 18.35348 | 12559 ft | 167 kts | 189° |
| 2026-04-18 16:44 | 0.30115 | 18.35099 | 12559 ft | 167 kts | 189° |
| 2026-04-18 16:45 | 0.28966 | 18.34843 | 12559 ft | 167 kts | 189° |
| 2026-04-18 16:45 | 0.27828 | 18.34590 | 12435 ft | 168 kts | 189° |
| 2026-04-18 16:45 | 0.26732 | 18.34341 | 12050 ft | 157 kts | 189° |
| 2026-04-18 16:45 | 0.25705 | 18.34111 | 11672 ft | 150 kts | 188° |
| 2026-04-18 16:46 | 0.24701 | 18.33887 | 11290 ft | 146 kts | 188° |
| 2026-04-18 16:46 | 0.23739 | 18.33673 | 10915 ft | 143 kts | 188° |
| 2026-04-18 16:46 | 0.22803 | 18.33464 | 10546 ft | 141 kts | 189° |
| 2026-04-18 16:46 | 0.21848 | 18.33252 | 10165 ft | 139 kts | 189° |
| 2026-04-18 16:47 | 0.20912 | 18.33044 | 9789 ft | 139 kts | 189° |
| 2026-04-18 16:47 | 0.19965 | 18.32832 | 9407 ft | 138 kts | 189° |
| 2026-04-18 16:47 | 0.19041 | 18.32626 | 9034 ft | 138 kts | 189° |
| 2026-04-18 16:47 | 0.18118 | 18.32421 | 8659 ft | 137 kts | 189° |
| 2026-04-18 16:48 | 0.17188 | 18.32214 | 8282 ft | 137 kts | 190° |
| 2026-04-18 16:48 | 0.16269 | 18.32009 | 7908 ft | 137 kts | 190° |
| 2026-04-18 16:48 | 0.15341 | 18.31802 | 7530 ft | 136 kts | 190° |
| 2026-04-18 16:48 | 0.14511 | 18.31379 | 7151 ft | 138 kts | 228° |
| 2026-04-18 16:49 | 0.14130 | 18.30522 | 6781 ft | 137 kts | 257° |
| 2026-04-18 16:49 | 0.13842 | 18.29633 | 6410 ft | 136 kts | 238° |
| 2026-04-18 16:49 | 0.13128 | 18.29041 | 6044 ft | 135 kts | 207° |
| 2026-04-18 16:49 | 0.12287 | 18.28647 | 5630 ft | 138 kts | 202° |
| 2026-04-18 16:50 | 0.11364 | 18.28304 | 5129 ft | 144 kts | 197° |
| 2026-04-18 16:50 | 0.10395 | 18.28076 | 4637 ft | 147 kts | 187° |
| 2026-04-18 16:50 | 0.09385 | 18.28037 | 4143 ft | 149 kts | 177° |
| 2026-04-18 16:50 | 0.08356 | 18.28109 | 3664 ft | 148 kts | 174° |
| 2026-04-18 16:51 | 0.07339 | 18.28203 | 3174 ft | 149 kts | 173° |
| 2026-04-18 16:51 | 0.06321 | 18.28320 | 2743 ft | 148 kts | 172° |
| 2026-04-18 16:51 | 0.05306 | 18.28476 | 2153 ft | 154 kts | 170° |
| 2026-04-18 16:51 | 0.04251 | 18.28639 | 1545 ft | 153 kts | 173° |
| 2026-04-18 16:52 | 0.03210 | 18.28758 | 1082 ft | 144 kts | 173° |
| 2026-04-18 16:52 | 0.02337 | 18.28871 | 1038 ft | 110 kts | 173° |
| 2026-04-18 16:52 | 0.01686 | 18.28937 | 1032 ft | 79 kts | 172° |
| 2026-04-18 16:52 | 0.01248 | 18.28988 | 1027 ft | 31 kts | 174° |
| 2026-04-18 16:53 | 0.01201 | 18.28996 | 1026 ft | 0 kts | 112° |
| 2026-04-18 16:53 | 0.01215 | 18.29002 | 1026 ft | 12 kts | 343° |
| 2026-04-18 16:53 | 0.01361 | 18.28980 | 1028 ft | 28 kts | 353° |
| 2026-04-18 16:53 | 0.01599 | 18.28951 | 1031 ft | 38 kts | 353° |
| 2026-04-18 16:54 | 0.01856 | 18.28920 | 1033 ft | 35 kts | 352° |
| 2026-04-18 16:54 | 0.02054 | 18.28896 | 1035 ft | 23 kts | 353° |
| 2026-04-18 16:54 | 0.02131 | 18.28970 | 1035 ft | 14 kts | 80° |
| 2026-04-18 16:54 | 0.02100 | 18.29032 | 1032 ft | 9 kts | 147° |
| 2026-04-18 16:55 | 0.02114 | 18.29036 | 1032 ft | 0 kts | 288° |